MSR9903 BIKF-HECA
Flight info
| Callsign | MSR9903 |
|---|---|
| Flight time | 6h 56m |
| Altitude | 33000 |
| Route | OSKUM3A OSKUM DCT MIKLA DCT GUNPA/N0459F330 DCT KLONN DCT KARLI P613 BAVTA P992 ATTUS DCT BUMIL DCT HDO DCT BITSI DCT XOMBA DCT KEROP DCT DONIV DCT NISVA DCT NIKTI UN127 IMR UG80 BANRO UN128 RDS UL995 VANZA DCT RASDA A16 MERPI |
| Aircraft | B38M/M-SDE1FGHILORVWXY/HB1 |
Departure
| Time | 2026-05-03 23:29 |
|---|---|
| Airport | Keflavik International Airport (BIKF) |
Arrival
| Time | 2026-05-04 06:25 |
|---|---|
| Airport | Cairo International Airport (HECA) |
| Time | Latitude | Longitude | Altitude | Speed | Heading |
|---|---|---|---|---|---|
| 2026-05-03 22:34 | 63.99309 | -22.63430 | 143 ft | 0 kts | 122° |
| 2026-05-03 23:17 | 63.99312 | -22.63440 | 143 ft | 4 kts | 119° |
| 2026-05-03 23:17 | 63.99320 | -22.63496 | 143 ft | 4 kts | 89° |
| 2026-05-03 23:18 | 63.99316 | -22.63556 | 143 ft | 4 kts | 80° |
| 2026-05-03 23:18 | 63.99316 | -22.63612 | 143 ft | 3 kts | 116° |
| 2026-05-03 23:18 | 63.99317 | -22.63617 | 143 ft | 2 kts | 120° |
| 2026-05-03 23:21 | 63.99316 | -22.63612 | 143 ft | 1 kts | 121° |
| 2026-05-03 23:21 | 63.99299 | -22.63566 | 143 ft | 6 kts | 142° |
| 2026-05-03 23:21 | 63.99247 | -22.63504 | 143 ft | 11 kts | 136° |
| 2026-05-03 23:21 | 63.99176 | -22.63399 | 143 ft | 14 kts | 123° |
| 2026-05-03 23:22 | 63.99174 | -22.62831 | 143 ft | 22 kts | 97° |
| 2026-05-03 23:22 | 63.99172 | -22.62501 | 143 ft | 20 kts | 90° |
| 2026-05-03 23:22 | 63.99173 | -22.62192 | 143 ft | 20 kts | 90° |
| 2026-05-03 23:23 | 63.99174 | -22.61871 | 143 ft | 20 kts | 89° |
| 2026-05-03 23:23 | 63.99173 | -22.61577 | 150 ft | 17 kts | 90° |
| 2026-05-03 23:23 | 63.99172 | -22.61321 | 155 ft | 15 kts | 88° |
| 2026-05-03 23:23 | 63.99173 | -22.61099 | 160 ft | 15 kts | 90° |
| 2026-05-03 23:24 | 63.99137 | -22.60951 | 164 ft | 13 kts | 158° |
| 2026-05-03 23:24 | 63.99018 | -22.60939 | 169 ft | 22 kts | 180° |
| 2026-05-03 23:24 | 63.98845 | -22.60938 | 166 ft | 27 kts | 180° |
| 2026-05-03 23:24 | 63.98673 | -22.60940 | 166 ft | 24 kts | 180° |
| 2026-05-03 23:25 | 63.98508 | -22.60940 | 168 ft | 23 kts | 179° |
| 2026-05-03 23:25 | 63.98339 | -22.60938 | 168 ft | 25 kts | 180° |
| 2026-05-03 23:25 | 63.98164 | -22.60939 | 168 ft | 25 kts | 180° |
| 2026-05-03 23:25 | 63.97990 | -22.60940 | 171 ft | 25 kts | 180° |
| 2026-05-03 23:26 | 63.97811 | -22.60940 | 172 ft | 26 kts | 180° |
| 2026-05-03 23:26 | 63.97629 | -22.60942 | 170 ft | 27 kts | 180° |
| 2026-05-03 23:26 | 63.97433 | -22.60938 | 167 ft | 29 kts | 179° |
| 2026-05-03 23:26 | 63.97257 | -22.60940 | 162 ft | 25 kts | 180° |
| 2026-05-03 23:27 | 63.97069 | -22.60939 | 155 ft | 29 kts | 179° |
| 2026-05-03 23:27 | 63.96865 | -22.60941 | 148 ft | 30 kts | 180° |
| 2026-05-03 23:27 | 63.96664 | -22.60942 | 141 ft | 30 kts | 180° |
| 2026-05-03 23:27 | 63.96507 | -22.60940 | 137 ft | 19 kts | 180° |
| 2026-05-03 23:28 | 63.96460 | -22.60750 | 142 ft | 14 kts | 90° |
| 2026-05-03 23:28 | 63.96472 | -22.60568 | 147 ft | 11 kts | 42° |
| 2026-05-03 23:28 | 63.96561 | -22.60543 | 150 ft | 24 kts | 0° |
| 2026-05-03 23:28 | 63.96988 | -22.60541 | 163 ft | 95 kts | 0° |
| 2026-05-03 23:29 | 63.97848 | -22.60537 | 180 ft | 151 kts | 2° |
| 2026-05-03 23:29 | 63.98944 | -22.60556 | 652 ft | 164 kts | 357° |
| 2026-05-03 23:29 | 64.00093 | -22.60620 | 1412 ft | 168 kts | 355° |
| 2026-05-03 23:29 | 64.01288 | -22.60609 | 2184 ft | 175 kts | 358° |
| 2026-05-03 23:30 | 64.02534 | -22.60542 | 2850 ft | 186 kts | 358° |
| 2026-05-03 23:30 | 64.03885 | -22.60412 | 3383 ft | 201 kts | 6° |
| 2026-05-03 23:30 | 64.05233 | -22.59042 | 3762 ft | 231 kts | 36° |
| 2026-05-03 23:30 | 64.06207 | -22.55926 | 4252 ft | 255 kts | 70° |
| 2026-05-03 23:31 | 64.06337 | -22.51869 | 5206 ft | 258 kts | 90° |
| 2026-05-03 23:31 | 64.06309 | -22.47702 | 5862 ft | 271 kts | 88° |
| 2026-05-03 23:31 | 64.06296 | -22.43241 | 6401 ft | 289 kts | 91° |
| 2026-05-03 23:31 | 64.05762 | -22.38803 | 7089 ft | 295 kts | 119° |
| 2026-05-03 23:32 | 64.04693 | -22.34807 | 7891 ft | 300 kts | 121° |
| 2026-05-03 23:32 | 64.03609 | -22.30580 | 8503 ft | 313 kts | 120° |
| 2026-05-03 23:32 | 64.02525 | -22.26297 | 9303 ft | 316 kts | 120° |
| 2026-05-03 23:32 | 64.01417 | -22.21891 | 9929 ft | 326 kts | 120° |
| 2026-05-03 23:33 | 64.00275 | -22.17336 | 10558 ft | 334 kts | 120° |
| 2026-05-03 23:33 | 63.99102 | -22.12659 | 10960 ft | 350 kts | 120° |
| 2026-05-03 23:33 | 63.97868 | -22.07742 | 11278 ft | 368 kts | 120° |
| 2026-05-03 23:33 | 63.96558 | -22.02534 | 11592 ft | 386 kts | 120° |
| 2026-05-03 23:34 | 63.95206 | -21.97167 | 11935 ft | 400 kts | 121° |
| 2026-05-03 23:34 | 63.93798 | -21.91595 | 12367 ft | 411 kts | 121° |
| 2026-05-03 23:34 | 63.92357 | -21.85910 | 13048 ft | 415 kts | 121° |
| 2026-05-03 23:34 | 63.90894 | -21.80149 | 13628 ft | 422 kts | 121° |
| 2026-05-03 23:35 | 63.89429 | -21.74397 | 14211 ft | 426 kts | 121° |
| 2026-05-03 23:35 | 63.87943 | -21.68576 | 14755 ft | 431 kts | 121° |
| 2026-05-03 23:35 | 63.86419 | -21.62625 | 15335 ft | 435 kts | 121° |
| 2026-05-03 23:35 | 63.84898 | -21.56703 | 15902 ft | 439 kts | 121° |
| 2026-05-03 23:36 | 63.83355 | -21.50704 | 16469 ft | 444 kts | 121° |
| 2026-05-03 23:36 | 63.81794 | -21.44658 | 17011 ft | 449 kts | 121° |
| 2026-05-03 23:36 | 63.80214 | -21.38557 | 17565 ft | 453 kts | 121° |
| 2026-05-03 23:36 | 63.78608 | -21.32370 | 18106 ft | 457 kts | 121° |
| 2026-05-03 23:37 | 63.77015 | -21.26138 | 18593 ft | 462 kts | 116° |
| 2026-05-03 23:37 | 63.75971 | -21.19211 | 19045 ft | 462 kts | 97° |
| 2026-05-03 23:37 | 63.75554 | -21.12031 | 19463 ft | 466 kts | 94° |
| 2026-05-03 23:37 | 63.75120 | -21.04712 | 19935 ft | 470 kts | 95° |
| 2026-05-03 23:38 | 63.74670 | -20.97447 | 20380 ft | 474 kts | 95° |
| 2026-05-03 23:38 | 63.74200 | -20.89992 | 20814 ft | 478 kts | 95° |
| 2026-05-03 23:38 | 63.73727 | -20.82574 | 21260 ft | 482 kts | 95° |
| 2026-05-03 23:38 | 63.73242 | -20.75028 | 21682 ft | 486 kts | 95° |
| 2026-05-03 23:39 | 63.72754 | -20.67507 | 22122 ft | 489 kts | 95° |
| 2026-05-03 23:39 | 63.72252 | -20.59826 | 22536 ft | 493 kts | 95° |
| 2026-05-03 23:39 | 63.71753 | -20.52250 | 22946 ft | 497 kts | 96° |
| 2026-05-03 23:39 | 63.71341 | -20.44398 | 23359 ft | 497 kts | 86° |
| 2026-05-03 23:40 | 63.71644 | -20.36740 | 23742 ft | 492 kts | 76° |
| 2026-05-03 23:40 | 63.72096 | -20.29082 | 24007 ft | 498 kts | 77° |
| 2026-05-03 23:40 | 63.72530 | -20.21281 | 24425 ft | 499 kts | 77° |
| 2026-05-03 23:40 | 63.72966 | -20.13453 | 24747 ft | 503 kts | 77° |
| 2026-05-03 23:41 | 63.73396 | -20.05644 | 25101 ft | 506 kts | 77° |
| 2026-05-03 23:41 | 63.73826 | -19.97765 | 25441 ft | 509 kts | 77° |
| 2026-05-03 23:41 | 63.74260 | -19.89739 | 25789 ft | 511 kts | 78° |
| 2026-05-03 23:41 | 63.74685 | -19.81798 | 26125 ft | 514 kts | 78° |
| 2026-05-03 23:42 | 63.75108 | -19.73808 | 26449 ft | 517 kts | 78° |
| 2026-05-03 23:42 | 63.75533 | -19.65664 | 26760 ft | 520 kts | 78° |
| 2026-05-03 23:42 | 63.75953 | -19.57557 | 27098 ft | 521 kts | 78° |
| 2026-05-03 23:42 | 63.76367 | -19.49462 | 27361 ft | 524 kts | 78° |
| 2026-05-03 23:43 | 63.76786 | -19.41176 | 27658 ft | 527 kts | 78° |
| 2026-05-03 23:43 | 63.77195 | -19.33004 | 27983 ft | 530 kts | 78° |
| 2026-05-03 23:43 | 63.77604 | -19.24743 | 28257 ft | 533 kts | 78° |
| 2026-05-03 23:43 | 63.78015 | -19.16305 | 28569 ft | 535 kts | 78° |
| 2026-05-03 23:44 | 63.78417 | -19.07976 | 28877 ft | 538 kts | 79° |
| 2026-05-03 23:44 | 63.78817 | -18.99567 | 29123 ft | 541 kts | 79° |
| 2026-05-03 23:44 | 63.79214 | -18.91116 | 29411 ft | 543 kts | 79° |
| 2026-05-03 23:44 | 63.79608 | -18.82641 | 29691 ft | 545 kts | 79° |
| 2026-05-03 23:45 | 63.80003 | -18.74034 | 30018 ft | 546 kts | 79° |
| 2026-05-03 23:45 | 63.80386 | -18.65548 | 30347 ft | 546 kts | 79° |
| 2026-05-03 23:45 | 63.80771 | -18.56936 | 30705 ft | 545 kts | 79° |
| 2026-05-03 23:45 | 63.81143 | -18.48490 | 31064 ft | 543 kts | 79° |
| 2026-05-03 23:46 | 63.81515 | -18.39927 | 31421 ft | 542 kts | 79° |
| 2026-05-03 23:46 | 63.81876 | -18.31488 | 31753 ft | 542 kts | 79° |
| 2026-05-03 23:46 | 63.82236 | -18.22978 | 32116 ft | 540 kts | 79° |
| 2026-05-03 23:46 | 63.82585 | -18.14575 | 32457 ft | 539 kts | 79° |
| 2026-05-03 23:47 | 63.82935 | -18.06070 | 32815 ft | 538 kts | 79° |
| 2026-05-03 23:47 | 63.83274 | -17.97686 | 33016 ft | 538 kts | 79° |
| 2026-05-03 23:47 | 63.83941 | -17.80840 | 33000 ft | 536 kts | 79° |
| 2026-05-03 23:48 | 63.84594 | -17.63992 | 32999 ft | 537 kts | 79° |
| 2026-05-03 23:48 | 63.84686 | -17.55601 | 32972 ft | 544 kts | 91° |
| 2026-05-03 23:48 | 63.83967 | -17.47061 | 33007 ft | 550 kts | 101° |
| 2026-05-03 23:49 | 63.82390 | -17.30106 | 33007 ft | 551 kts | 98° |
| 2026-05-03 23:49 | 63.80844 | -17.13139 | 33000 ft | 551 kts | 98° |
| 2026-05-03 23:50 | 63.79532 | -16.98923 | 33005 ft | 552 kts | 98° |
| 2026-05-03 23:50 | 63.77681 | -16.79148 | 33004 ft | 552 kts | 99° |
| 2026-05-03 23:51 | 63.76065 | -16.62139 | 33006 ft | 553 kts | 99° |
| 2026-05-03 23:51 | 63.74440 | -16.45263 | 33010 ft | 553 kts | 99° |
| 2026-05-03 23:52 | 63.72782 | -16.28263 | 33006 ft | 554 kts | 99° |
| 2026-05-03 23:52 | 63.71103 | -16.11270 | 33006 ft | 554 kts | 99° |
| 2026-05-03 23:53 | 63.69411 | -15.94382 | 33008 ft | 555 kts | 99° |
| 2026-05-03 23:53 | 63.67693 | -15.77442 | 33008 ft | 555 kts | 99° |
| 2026-05-03 23:54 | 63.65950 | -15.60473 | 33022 ft | 556 kts | 99° |
| 2026-05-03 23:54 | 63.64175 | -15.43409 | 33007 ft | 559 kts | 99° |
| 2026-05-03 23:55 | 63.62381 | -15.26376 | 33004 ft | 560 kts | 99° |
| 2026-05-03 23:55 | 63.60575 | -15.09448 | 33005 ft | 560 kts | 99° |
| 2026-05-03 23:56 | 63.58739 | -14.92454 | 33001 ft | 560 kts | 100° |
| 2026-05-03 23:56 | 63.56889 | -14.75526 | 33002 ft | 560 kts | 100° |
| 2026-05-03 23:57 | 63.55008 | -14.58524 | 33004 ft | 560 kts | 100° |
| 2026-05-03 23:57 | 63.53107 | -14.41539 | 33005 ft | 560 kts | 100° |
| 2026-05-03 23:58 | 63.51194 | -14.24657 | 33007 ft | 561 kts | 100° |
| 2026-05-03 23:58 | 63.49253 | -14.07727 | 33010 ft | 561 kts | 100° |
| 2026-05-03 23:59 | 63.47295 | -13.90835 | 33008 ft | 561 kts | 101° |
| 2026-05-03 23:59 | 63.45317 | -13.73969 | 33011 ft | 561 kts | 101° |
| 2026-05-04 00:00 | 63.43326 | -13.57187 | 33004 ft | 562 kts | 101° |
| 2026-05-04 00:00 | 63.41299 | -13.40299 | 33008 ft | 562 kts | 101° |
| 2026-05-04 00:01 | 63.39265 | -13.23527 | 33007 ft | 562 kts | 101° |
| 2026-05-04 00:01 | 63.37200 | -13.06691 | 33008 ft | 562 kts | 101° |
| 2026-05-04 00:02 | 63.35115 | -12.89883 | 33002 ft | 562 kts | 102° |
| 2026-05-04 00:02 | 63.33013 | -12.73120 | 33002 ft | 563 kts | 102° |
| 2026-05-04 00:03 | 63.30892 | -12.56384 | 33000 ft | 562 kts | 102° |
| 2026-05-04 00:03 | 63.28748 | -12.39645 | 33001 ft | 562 kts | 102° |
| 2026-05-04 00:04 | 63.26603 | -12.23080 | 32996 ft | 561 kts | 102° |
| 2026-05-04 00:04 | 63.24424 | -12.06417 | 32997 ft | 561 kts | 103° |
| 2026-05-04 00:05 | 63.22223 | -11.89769 | 32995 ft | 561 kts | 103° |
| 2026-05-04 00:05 | 63.20384 | -11.75987 | 32992 ft | 561 kts | 103° |
| 2026-05-04 00:06 | 63.18153 | -11.59426 | 32993 ft | 560 kts | 103° |
| 2026-05-04 00:06 | 63.15910 | -11.42938 | 32993 ft | 560 kts | 103° |
| 2026-05-04 00:07 | 63.13643 | -11.26445 | 32995 ft | 560 kts | 104° |
| 2026-05-04 00:07 | 63.11364 | -11.10030 | 32991 ft | 559 kts | 104° |
| 2026-05-04 00:08 | 63.09073 | -10.93683 | 32989 ft | 559 kts | 104° |
| 2026-05-04 00:08 | 63.06777 | -10.77462 | 32990 ft | 558 kts | 104° |
| 2026-05-04 00:09 | 63.04446 | -10.61155 | 32985 ft | 558 kts | 104° |
| 2026-05-04 00:09 | 63.02096 | -10.44872 | 32982 ft | 557 kts | 105° |
| 2026-05-04 00:10 | 62.99725 | -10.28593 | 32983 ft | 557 kts | 105° |
| 2026-05-04 00:10 | 62.97352 | -10.12460 | 32983 ft | 557 kts | 105° |
| 2026-05-04 00:11 | 62.94952 | -9.96294 | 32982 ft | 556 kts | 105° |
| 2026-05-04 00:11 | 62.92537 | -9.80175 | 32976 ft | 556 kts | 105° |
| 2026-05-04 00:12 | 62.90102 | -9.64071 | 32977 ft | 555 kts | 106° |
| 2026-05-04 00:12 | 62.87651 | -9.48009 | 32972 ft | 554 kts | 106° |
| 2026-05-04 00:13 | 62.85187 | -9.32016 | 32972 ft | 554 kts | 106° |
| 2026-05-04 00:13 | 62.82715 | -9.16106 | 32972 ft | 553 kts | 107° |
| 2026-05-04 00:14 | 62.80220 | -9.00193 | 32969 ft | 553 kts | 107° |
| 2026-05-04 00:14 | 62.77710 | -8.84328 | 32971 ft | 552 kts | 107° |
| 2026-05-04 00:15 | 62.75201 | -8.68606 | 32974 ft | 552 kts | 107° |
| 2026-05-04 00:15 | 62.72647 | -8.52741 | 32969 ft | 551 kts | 107° |
| 2026-05-04 00:16 | 62.70096 | -8.37026 | 32974 ft | 551 kts | 108° |
| 2026-05-04 00:16 | 62.67525 | -8.21331 | 32964 ft | 550 kts | 108° |
| 2026-05-04 00:17 | 62.64951 | -8.05746 | 32964 ft | 550 kts | 108° |
| 2026-05-04 00:17 | 62.62352 | -7.90142 | 32958 ft | 549 kts | 108° |
| 2026-05-04 00:18 | 62.59740 | -7.74595 | 32951 ft | 549 kts | 108° |
| 2026-05-04 00:18 | 62.57111 | -7.59072 | 32948 ft | 548 kts | 108° |
| 2026-05-04 00:19 | 62.54467 | -7.43592 | 32954 ft | 548 kts | 109° |
| 2026-05-04 00:19 | 62.51811 | -7.28171 | 32955 ft | 547 kts | 109° |
| 2026-05-04 00:20 | 62.49123 | -7.12688 | 32949 ft | 546 kts | 109° |
| 2026-05-04 00:20 | 62.46440 | -6.97360 | 32950 ft | 546 kts | 109° |
| 2026-05-04 00:21 | 62.43759 | -6.82161 | 32951 ft | 545 kts | 109° |
| 2026-05-04 00:21 | 62.41047 | -6.66910 | 32956 ft | 544 kts | 109° |
| 2026-05-04 00:22 | 62.38311 | -6.51644 | 32945 ft | 544 kts | 110° |
| 2026-05-04 00:22 | 62.35567 | -6.36465 | 32950 ft | 543 kts | 110° |
| 2026-05-04 00:23 | 62.32826 | -6.21412 | 32943 ft | 542 kts | 110° |
| 2026-05-04 00:23 | 62.30061 | -6.06345 | 32949 ft | 541 kts | 110° |
| 2026-05-04 00:24 | 62.27279 | -5.91301 | 32949 ft | 541 kts | 110° |
| 2026-05-04 00:24 | 62.24502 | -5.76406 | 32947 ft | 540 kts | 110° |
| 2026-05-04 00:25 | 62.21710 | -5.61537 | 32944 ft | 539 kts | 111° |
| 2026-05-04 00:25 | 62.18891 | -5.46637 | 32939 ft | 538 kts | 111° |
| 2026-05-04 00:26 | 62.16068 | -5.31826 | 32943 ft | 537 kts | 111° |
| 2026-05-04 00:26 | 62.13230 | -5.17050 | 32939 ft | 536 kts | 111° |
| 2026-05-04 00:27 | 62.10383 | -5.02332 | 32934 ft | 535 kts | 112° |
| 2026-05-04 00:27 | 62.07526 | -4.87673 | 32945 ft | 535 kts | 112° |
| 2026-05-04 00:28 | 62.04675 | -4.73150 | 32928 ft | 534 kts | 112° |
| 2026-05-04 00:28 | 62.01793 | -4.58580 | 32936 ft | 533 kts | 112° |
| 2026-05-04 00:29 | 61.98896 | -4.44028 | 32932 ft | 533 kts | 112° |
| 2026-05-04 00:29 | 61.96004 | -4.29613 | 32931 ft | 532 kts | 113° |
| 2026-05-04 00:30 | 61.93087 | -4.15179 | 32928 ft | 532 kts | 113° |
| 2026-05-04 00:30 | 61.90161 | -4.00790 | 32932 ft | 531 kts | 113° |
| 2026-05-04 00:31 | 61.87212 | -3.86402 | 32924 ft | 531 kts | 114° |
| 2026-05-04 00:31 | 61.84254 | -3.72064 | 32927 ft | 530 kts | 114° |
| 2026-05-04 00:32 | 61.81302 | -3.57856 | 32925 ft | 530 kts | 114° |
| 2026-05-04 00:32 | 61.78329 | -3.43646 | 32925 ft | 530 kts | 114° |
| 2026-05-04 00:33 | 61.73821 | -3.22278 | 32925 ft | 529 kts | 115° |
| 2026-05-04 00:34 | 61.70812 | -3.08141 | 32924 ft | 529 kts | 115° |
| 2026-05-04 00:34 | 61.67804 | -2.94103 | 32923 ft | 528 kts | 115° |
| 2026-05-04 00:35 | 61.64761 | -2.79993 | 32921 ft | 528 kts | 115° |
| 2026-05-04 00:35 | 61.61708 | -2.65933 | 32920 ft | 528 kts | 116° |
| 2026-05-04 00:36 | 61.58654 | -2.51965 | 32921 ft | 527 kts | 116° |
| 2026-05-04 00:36 | 61.55586 | -2.38025 | 32917 ft | 527 kts | 116° |
| 2026-05-04 00:37 | 61.52493 | -2.24062 | 32917 ft | 527 kts | 116° |
| 2026-05-04 00:37 | 61.49411 | -2.10240 | 32916 ft | 526 kts | 116° |
| 2026-05-04 00:38 | 61.46299 | -1.96374 | 32912 ft | 525 kts | 117° |
| 2026-05-04 00:38 | 61.43180 | -1.82570 | 32916 ft | 525 kts | 117° |
| 2026-05-04 00:39 | 61.40058 | -1.68836 | 32912 ft | 524 kts | 117° |
| 2026-05-04 00:39 | 61.36918 | -1.55114 | 32911 ft | 524 kts | 117° |
| 2026-05-04 00:40 | 61.33787 | -1.41495 | 32908 ft | 523 kts | 117° |
| 2026-05-04 00:40 | 61.30628 | -1.27832 | 32906 ft | 522 kts | 118° |
| 2026-05-04 00:41 | 61.27474 | -1.14271 | 32909 ft | 522 kts | 118° |
| 2026-05-04 00:41 | 61.24294 | -1.00685 | 32906 ft | 521 kts | 118° |
| 2026-05-04 00:42 | 61.21112 | -0.87161 | 32902 ft | 521 kts | 118° |
| 2026-05-04 00:42 | 61.17939 | -0.73763 | 32899 ft | 520 kts | 118° |
| 2026-05-04 00:43 | 61.14728 | -0.60275 | 32896 ft | 519 kts | 118° |
| 2026-05-04 00:43 | 61.11531 | -0.46930 | 32898 ft | 519 kts | 119° |
| 2026-05-04 00:44 | 61.08311 | -0.33561 | 32895 ft | 518 kts | 119° |
| 2026-05-04 00:44 | 61.05105 | -0.20336 | 32892 ft | 518 kts | 119° |
| 2026-05-04 00:45 | 61.01856 | -0.07043 | 32899 ft | 517 kts | 121° |
| 2026-05-04 00:45 | 60.99889 | -0.00971 | 32880 ft | 507 kts | 136° |
| 2026-05-04 00:45 | 60.97274 | 0.03808 | 32891 ft | 496 kts | 153° |
| 2026-05-04 00:46 | 60.91274 | 0.10429 | 32901 ft | 492 kts | 157° |
| 2026-05-04 00:46 | 60.85282 | 0.17377 | 32891 ft | 493 kts | 156° |
| 2026-05-04 00:47 | 60.79326 | 0.24343 | 32890 ft | 492 kts | 156° |
| 2026-05-04 00:47 | 60.73402 | 0.31251 | 32890 ft | 492 kts | 156° |
| 2026-05-04 00:48 | 60.67442 | 0.38170 | 32887 ft | 491 kts | 156° |
| 2026-05-04 00:48 | 60.61513 | 0.45025 | 32887 ft | 491 kts | 156° |
| 2026-05-04 00:49 | 60.55562 | 0.51874 | 32887 ft | 490 kts | 156° |
| 2026-05-04 00:49 | 60.49629 | 0.58676 | 32889 ft | 490 kts | 156° |
| 2026-05-04 00:50 | 60.43720 | 0.65420 | 32884 ft | 489 kts | 156° |
| 2026-05-04 00:50 | 60.37782 | 0.72170 | 32884 ft | 489 kts | 156° |
| 2026-05-04 00:51 | 60.31861 | 0.78872 | 32883 ft | 488 kts | 156° |
| 2026-05-04 00:51 | 60.25929 | 0.85557 | 32884 ft | 488 kts | 156° |
| 2026-05-04 00:52 | 60.20001 | 0.92212 | 32874 ft | 487 kts | 156° |
| 2026-05-04 00:52 | 60.14100 | 0.98806 | 32882 ft | 486 kts | 156° |
| 2026-05-04 00:53 | 60.08187 | 1.05388 | 32883 ft | 486 kts | 156° |
| 2026-05-04 00:53 | 60.02279 | 1.11937 | 32879 ft | 486 kts | 156° |
| 2026-05-04 00:54 | 59.96358 | 1.18474 | 32883 ft | 485 kts | 156° |
| 2026-05-04 00:54 | 59.90441 | 1.24979 | 32885 ft | 485 kts | 156° |
| 2026-05-04 00:55 | 59.84545 | 1.31435 | 32887 ft | 484 kts | 156° |
| 2026-05-04 00:55 | 59.78638 | 1.37875 | 32888 ft | 484 kts | 156° |
| 2026-05-04 00:56 | 59.72752 | 1.44268 | 32890 ft | 483 kts | 156° |
| 2026-05-04 00:56 | 59.66884 | 1.50615 | 32888 ft | 483 kts | 156° |
| 2026-05-04 00:57 | 59.60975 | 1.56982 | 32889 ft | 482 kts | 156° |
| 2026-05-04 00:57 | 59.55096 | 1.63289 | 32906 ft | 482 kts | 156° |
| 2026-05-04 00:58 | 59.49190 | 1.69601 | 32909 ft | 481 kts | 156° |
| 2026-05-04 00:58 | 59.43305 | 1.75864 | 32907 ft | 481 kts | 156° |
| 2026-05-04 00:59 | 59.37443 | 1.82079 | 32903 ft | 480 kts | 156° |
| 2026-05-04 00:59 | 59.31583 | 1.88268 | 32907 ft | 480 kts | 156° |
| 2026-05-04 01:00 | 59.25710 | 1.94445 | 32913 ft | 479 kts | 156° |
| 2026-05-04 01:00 | 59.19827 | 2.00609 | 32912 ft | 478 kts | 157° |
| 2026-05-04 01:01 | 59.13994 | 2.06695 | 32908 ft | 477 kts | 157° |
| 2026-05-04 01:01 | 59.08144 | 2.12778 | 32914 ft | 477 kts | 157° |
| 2026-05-04 01:02 | 59.02281 | 2.18849 | 32922 ft | 476 kts | 157° |
| 2026-05-04 01:02 | 58.96447 | 2.24865 | 32919 ft | 475 kts | 157° |
| 2026-05-04 01:03 | 58.90638 | 2.30835 | 32917 ft | 475 kts | 157° |
| 2026-05-04 01:03 | 58.85760 | 2.35828 | 32925 ft | 475 kts | 157° |
| 2026-05-04 01:04 | 58.79918 | 2.41788 | 32919 ft | 474 kts | 157° |
| 2026-05-04 01:04 | 58.74081 | 2.47723 | 32924 ft | 474 kts | 157° |
| 2026-05-04 01:05 | 58.68249 | 2.53626 | 32931 ft | 474 kts | 157° |
| 2026-05-04 01:05 | 58.62446 | 2.59480 | 32932 ft | 473 kts | 157° |
| 2026-05-04 01:06 | 58.56621 | 2.65339 | 32931 ft | 473 kts | 157° |
| 2026-05-04 01:06 | 58.50785 | 2.71185 | 32929 ft | 472 kts | 157° |
| 2026-05-04 01:07 | 58.44986 | 2.76975 | 32940 ft | 472 kts | 157° |
| 2026-05-04 01:07 | 58.39207 | 2.82976 | 32927 ft | 476 kts | 148° |
| 2026-05-04 01:07 | 58.36788 | 2.87262 | 32952 ft | 482 kts | 134° |
| 2026-05-04 01:08 | 58.34520 | 2.92056 | 32946 ft | 482 kts | 136° |
| 2026-05-04 01:08 | 58.29956 | 3.01332 | 32947 ft | 482 kts | 136° |
| 2026-05-04 01:09 | 58.25379 | 3.10597 | 32954 ft | 482 kts | 137° |
| 2026-05-04 01:09 | 58.20788 | 3.19852 | 32951 ft | 481 kts | 137° |
| 2026-05-04 01:10 | 58.16181 | 3.29100 | 32944 ft | 481 kts | 137° |
| 2026-05-04 01:10 | 58.11613 | 3.38234 | 32950 ft | 481 kts | 137° |
| 2026-05-04 01:11 | 58.06997 | 3.47426 | 32960 ft | 481 kts | 137° |
| 2026-05-04 01:11 | 58.02395 | 3.56554 | 32948 ft | 480 kts | 137° |
| 2026-05-04 01:12 | 57.97775 | 3.65680 | 32955 ft | 480 kts | 137° |
| 2026-05-04 01:12 | 57.93163 | 3.74758 | 32955 ft | 480 kts | 137° |
| 2026-05-04 01:13 | 57.88552 | 3.83795 | 32951 ft | 479 kts | 137° |
| 2026-05-04 01:13 | 57.83937 | 3.92805 | 32950 ft | 479 kts | 137° |
| 2026-05-04 01:14 | 57.79299 | 4.01822 | 32950 ft | 478 kts | 137° |
| 2026-05-04 01:14 | 57.74688 | 4.10754 | 32950 ft | 477 kts | 137° |
| 2026-05-04 01:15 | 57.70059 | 4.19686 | 32956 ft | 477 kts | 137° |
| 2026-05-04 01:15 | 57.65440 | 4.28562 | 32946 ft | 476 kts | 137° |
| 2026-05-04 01:16 | 57.60813 | 4.37419 | 32948 ft | 476 kts | 137° |
| 2026-05-04 01:16 | 57.56212 | 4.46193 | 32948 ft | 475 kts | 137° |
| 2026-05-04 01:17 | 57.51577 | 4.54998 | 32942 ft | 475 kts | 138° |
| 2026-05-04 01:17 | 57.46946 | 4.63761 | 32941 ft | 474 kts | 138° |
| 2026-05-04 01:18 | 57.42349 | 4.72427 | 32941 ft | 474 kts | 138° |
| 2026-05-04 01:18 | 57.37708 | 4.81143 | 32939 ft | 474 kts | 138° |
| 2026-05-04 01:19 | 57.33080 | 4.89801 | 32945 ft | 474 kts | 138° |
| 2026-05-04 01:19 | 57.28439 | 4.98451 | 32935 ft | 474 kts | 138° |
| 2026-05-04 01:20 | 57.23789 | 5.07082 | 32939 ft | 473 kts | 139° |
| 2026-05-04 01:20 | 57.19142 | 5.15678 | 32934 ft | 473 kts | 139° |
| 2026-05-04 01:21 | 57.14512 | 5.24210 | 32924 ft | 473 kts | 139° |
| 2026-05-04 01:21 | 57.09853 | 5.32766 | 32933 ft | 472 kts | 139° |
| 2026-05-04 01:22 | 57.05217 | 5.41253 | 32927 ft | 472 kts | 139° |
| 2026-05-04 01:22 | 57.00558 | 5.49758 | 32928 ft | 472 kts | 138° |
| 2026-05-04 01:23 | 56.96188 | 5.58839 | 32930 ft | 474 kts | 135° |
| 2026-05-04 01:23 | 56.91887 | 5.67910 | 32922 ft | 473 kts | 135° |
| 2026-05-04 01:24 | 56.87568 | 5.76988 | 32926 ft | 473 kts | 135° |
| 2026-05-04 01:24 | 56.83252 | 5.86027 | 32926 ft | 472 kts | 135° |
| 2026-05-04 01:25 | 56.78922 | 5.95062 | 32923 ft | 472 kts | 135° |
| 2026-05-04 01:25 | 56.74584 | 6.04077 | 32922 ft | 472 kts | 135° |
| 2026-05-04 01:26 | 56.70269 | 6.13012 | 32923 ft | 472 kts | 136° |
| 2026-05-04 01:26 | 56.65919 | 6.21986 | 32920 ft | 471 kts | 136° |
| 2026-05-04 01:27 | 56.61602 | 6.30858 | 32920 ft | 471 kts | 136° |
| 2026-05-04 01:27 | 56.57248 | 6.39771 | 32915 ft | 471 kts | 136° |
| 2026-05-04 01:28 | 56.52882 | 6.48677 | 32912 ft | 471 kts | 136° |
| 2026-05-04 01:28 | 56.48531 | 6.57517 | 32914 ft | 471 kts | 136° |
| 2026-05-04 01:29 | 56.44187 | 6.66311 | 32910 ft | 471 kts | 136° |
| 2026-05-04 01:29 | 56.39818 | 6.75122 | 32908 ft | 471 kts | 137° |
| 2026-05-04 01:30 | 56.35448 | 6.83905 | 32909 ft | 471 kts | 137° |
| 2026-05-04 01:30 | 56.31073 | 6.92663 | 32905 ft | 470 kts | 137° |
| 2026-05-04 01:31 | 56.26682 | 7.01420 | 32903 ft | 470 kts | 137° |
| 2026-05-04 01:31 | 56.22312 | 7.10104 | 32906 ft | 470 kts | 137° |
| 2026-05-04 01:32 | 56.17907 | 7.18825 | 32903 ft | 470 kts | 137° |
| 2026-05-04 01:32 | 56.13521 | 7.27477 | 32904 ft | 470 kts | 137° |
| 2026-05-04 01:33 | 56.09113 | 7.36140 | 32902 ft | 470 kts | 137° |
| 2026-05-04 01:33 | 56.04729 | 7.44726 | 32900 ft | 469 kts | 137° |
| 2026-05-04 01:34 | 56.00312 | 7.53344 | 32899 ft | 469 kts | 137° |
| 2026-05-04 01:34 | 55.95897 | 7.61930 | 32899 ft | 469 kts | 137° |
| 2026-05-04 01:35 | 55.91505 | 7.70446 | 32899 ft | 469 kts | 138° |
| 2026-05-04 01:35 | 55.87058 | 7.79026 | 32899 ft | 469 kts | 138° |
| 2026-05-04 01:36 | 55.82631 | 7.87530 | 32895 ft | 468 kts | 138° |
| 2026-05-04 01:36 | 55.78207 | 7.96006 | 32898 ft | 468 kts | 138° |
| 2026-05-04 01:37 | 55.73772 | 8.04475 | 32883 ft | 468 kts | 138° |
| 2026-05-04 01:37 | 55.69336 | 8.12914 | 32882 ft | 468 kts | 138° |
| 2026-05-04 01:38 | 55.64899 | 8.21325 | 32874 ft | 467 kts | 138° |
| 2026-05-04 01:38 | 55.60340 | 8.29451 | 32843 ft | 458 kts | 150° |
| 2026-05-04 01:38 | 55.57599 | 8.32077 | 32858 ft | 445 kts | 165° |
| 2026-05-04 01:39 | 55.54697 | 8.33916 | 32850 ft | 447 kts | 164° |
| 2026-05-04 01:39 | 55.48902 | 8.37960 | 32851 ft | 447 kts | 163° |
| 2026-05-04 01:40 | 55.43145 | 8.41961 | 32856 ft | 447 kts | 163° |
| 2026-05-04 01:40 | 55.37361 | 8.45965 | 32864 ft | 447 kts | 163° |
| 2026-05-04 01:41 | 55.31573 | 8.49957 | 32864 ft | 447 kts | 164° |
| 2026-05-04 01:41 | 55.25794 | 8.53930 | 32870 ft | 446 kts | 164° |
| 2026-05-04 01:42 | 55.20002 | 8.57900 | 32874 ft | 446 kts | 164° |
| 2026-05-04 01:42 | 55.14216 | 8.61855 | 32877 ft | 446 kts | 164° |
| 2026-05-04 01:43 | 55.08484 | 8.65758 | 32881 ft | 446 kts | 164° |
| 2026-05-04 01:43 | 55.02708 | 8.69678 | 32878 ft | 445 kts | 164° |
| 2026-05-04 01:43 | 54.99824 | 8.71630 | 33034 ft | 446 kts | 164° |
| 2026-05-04 01:44 | 54.96916 | 8.73597 | 33404 ft | 445 kts | 164° |
| 2026-05-04 01:44 | 54.94018 | 8.75552 | 33722 ft | 445 kts | 164° |
| 2026-05-04 01:44 | 54.91164 | 8.77505 | 34028 ft | 446 kts | 161° |
| 2026-05-04 01:44 | 54.88478 | 8.80368 | 34294 ft | 457 kts | 145° |
| 2026-05-04 01:45 | 54.86113 | 8.84027 | 34567 ft | 458 kts | 144° |
| 2026-05-04 01:45 | 54.83698 | 8.87614 | 34754 ft | 459 kts | 145° |
| 2026-05-04 01:45 | 54.79032 | 8.94526 | 34901 ft | 424 kts | 145° |
| 2026-05-04 01:46 | 54.76826 | 8.97788 | 34898 ft | 408 kts | 146° |
| 2026-05-04 01:46 | 54.74719 | 9.00898 | 34906 ft | 392 kts | 146° |
| 2026-05-04 01:46 | 54.70605 | 9.06954 | 34863 ft | 388 kts | 146° |
| 2026-05-04 01:47 | 54.66477 | 9.13016 | 34863 ft | 388 kts | 146° |
| 2026-05-04 01:47 | 54.62356 | 9.19054 | 34863 ft | 388 kts | 146° |
| 2026-05-04 01:48 | 54.58253 | 9.25049 | 34859 ft | 388 kts | 146° |
| 2026-05-04 01:48 | 54.54137 | 9.31043 | 34853 ft | 387 kts | 147° |
| 2026-05-04 01:49 | 54.50018 | 9.37028 | 34854 ft | 387 kts | 147° |
| 2026-05-04 01:49 | 54.45914 | 9.42975 | 34851 ft | 387 kts | 147° |
| 2026-05-04 01:50 | 54.41798 | 9.48923 | 34849 ft | 387 kts | 147° |
| 2026-05-04 01:50 | 54.37680 | 9.54857 | 34877 ft | 387 kts | 147° |
| 2026-05-04 01:51 | 54.33550 | 9.60793 | 34877 ft | 387 kts | 147° |
| 2026-05-04 01:51 | 54.29432 | 9.66695 | 34883 ft | 387 kts | 147° |
| 2026-05-04 01:52 | 54.25322 | 9.72569 | 34881 ft | 387 kts | 147° |
| 2026-05-04 01:52 | 54.21204 | 9.78440 | 34889 ft | 386 kts | 147° |
| 2026-05-04 01:53 | 54.17076 | 9.84309 | 34888 ft | 386 kts | 147° |
| 2026-05-04 01:53 | 54.12949 | 9.90159 | 34891 ft | 386 kts | 147° |
| 2026-05-04 01:54 | 54.08807 | 9.96017 | 34892 ft | 385 kts | 147° |
| 2026-05-04 01:54 | 54.04680 | 10.01839 | 34895 ft | 385 kts | 147° |
| 2026-05-04 01:55 | 54.00555 | 10.07641 | 34897 ft | 385 kts | 147° |
| 2026-05-04 01:55 | 53.96422 | 10.13438 | 34896 ft | 385 kts | 147° |
| 2026-05-04 01:56 | 53.92306 | 10.19199 | 34902 ft | 385 kts | 147° |
| 2026-05-04 01:56 | 53.88164 | 10.24978 | 34890 ft | 385 kts | 147° |
| 2026-05-04 01:57 | 53.84048 | 10.30706 | 34889 ft | 385 kts | 148° |
| 2026-05-04 01:57 | 53.79904 | 10.36459 | 34888 ft | 385 kts | 148° |
| 2026-05-04 01:58 | 53.75754 | 10.42203 | 34883 ft | 386 kts | 148° |
| 2026-05-04 01:58 | 53.71602 | 10.47938 | 34886 ft | 386 kts | 148° |
| 2026-05-04 01:59 | 53.67446 | 10.53660 | 34889 ft | 386 kts | 148° |
| 2026-05-04 01:59 | 53.63289 | 10.59370 | 34889 ft | 386 kts | 148° |
| 2026-05-04 02:00 | 53.59113 | 10.65091 | 34891 ft | 386 kts | 148° |
| 2026-05-04 02:00 | 53.54988 | 10.70728 | 34895 ft | 386 kts | 148° |
| 2026-05-04 02:01 | 53.50831 | 10.76393 | 34897 ft | 386 kts | 148° |
| 2026-05-04 02:01 | 53.46643 | 10.82087 | 34901 ft | 386 kts | 148° |
| 2026-05-04 02:02 | 53.42918 | 10.87137 | 34900 ft | 387 kts | 148° |
| 2026-05-04 02:02 | 53.38736 | 10.92794 | 34898 ft | 387 kts | 148° |
| 2026-05-04 02:03 | 53.34567 | 10.98418 | 34901 ft | 386 kts | 148° |
| 2026-05-04 02:03 | 53.30372 | 11.04062 | 34901 ft | 386 kts | 148° |
| 2026-05-04 02:04 | 53.26905 | 11.08719 | 34900 ft | 386 kts | 148° |
| 2026-05-04 02:04 | 53.22716 | 11.14331 | 34900 ft | 385 kts | 148° |
| 2026-05-04 02:05 | 53.18538 | 11.19917 | 34903 ft | 385 kts | 148° |
| 2026-05-04 02:05 | 53.14350 | 11.25500 | 34906 ft | 385 kts | 148° |
| 2026-05-04 02:06 | 53.10272 | 11.31238 | 34916 ft | 387 kts | 144° |
| 2026-05-04 02:06 | 53.06262 | 11.37244 | 34910 ft | 387 kts | 144° |
| 2026-05-04 02:07 | 53.02253 | 11.43247 | 34911 ft | 387 kts | 144° |
| 2026-05-04 02:07 | 52.98277 | 11.49187 | 34910 ft | 387 kts | 144° |
| 2026-05-04 02:08 | 52.94270 | 11.55158 | 34913 ft | 386 kts | 144° |
| 2026-05-04 02:08 | 52.90269 | 11.61102 | 34916 ft | 385 kts | 144° |
| 2026-05-04 02:09 | 52.86279 | 11.67019 | 34915 ft | 385 kts | 144° |
| 2026-05-04 02:09 | 52.82307 | 11.72892 | 34913 ft | 384 kts | 144° |
| 2026-05-04 02:10 | 52.78307 | 11.78790 | 34919 ft | 384 kts | 144° |
| 2026-05-04 02:10 | 52.74348 | 11.84614 | 34923 ft | 384 kts | 144° |
| 2026-05-04 02:11 | 52.70353 | 11.90476 | 34922 ft | 384 kts | 144° |
| 2026-05-04 02:11 | 52.66367 | 11.96308 | 34919 ft | 384 kts | 145° |
| 2026-05-04 02:12 | 52.62357 | 12.02163 | 34930 ft | 384 kts | 145° |
| 2026-05-04 02:12 | 52.58379 | 12.07956 | 34926 ft | 384 kts | 145° |
| 2026-05-04 02:13 | 52.54364 | 12.13787 | 34917 ft | 384 kts | 145° |
| 2026-05-04 02:13 | 52.50367 | 12.19577 | 34930 ft | 384 kts | 145° |
| 2026-05-04 02:14 | 52.46371 | 12.25351 | 34930 ft | 383 kts | 145° |
| 2026-05-04 02:14 | 52.42355 | 12.31142 | 34930 ft | 383 kts | 145° |
| 2026-05-04 02:15 | 52.38341 | 12.36913 | 34931 ft | 384 kts | 145° |
| 2026-05-04 02:15 | 52.34334 | 12.42660 | 34932 ft | 384 kts | 145° |
| 2026-05-04 02:16 | 52.30322 | 12.48400 | 34932 ft | 383 kts | 145° |
| 2026-05-04 02:16 | 52.26320 | 12.54109 | 34934 ft | 383 kts | 145° |
| 2026-05-04 02:17 | 52.22311 | 12.59818 | 34932 ft | 383 kts | 145° |
| 2026-05-04 02:17 | 52.18273 | 12.65550 | 34935 ft | 383 kts | 145° |
| 2026-05-04 02:18 | 52.14269 | 12.71222 | 34933 ft | 383 kts | 145° |
| 2026-05-04 02:18 | 52.10242 | 12.76912 | 34931 ft | 384 kts | 145° |
| 2026-05-04 02:19 | 52.06212 | 12.82591 | 34937 ft | 384 kts | 145° |
| 2026-05-04 02:19 | 52.02159 | 12.88289 | 34940 ft | 385 kts | 145° |
| 2026-05-04 02:20 | 51.98132 | 12.93937 | 34947 ft | 385 kts | 145° |
| 2026-05-04 02:20 | 51.94063 | 12.99628 | 34955 ft | 386 kts | 145° |
| 2026-05-04 02:21 | 51.89983 | 13.05322 | 34957 ft | 386 kts | 145° |
| 2026-05-04 02:21 | 51.85937 | 13.10956 | 34963 ft | 387 kts | 145° |
| 2026-05-04 02:22 | 51.81841 | 13.16642 | 34963 ft | 387 kts | 145° |
| 2026-05-04 02:22 | 51.77774 | 13.22276 | 34964 ft | 387 kts | 145° |
| 2026-05-04 02:23 | 51.73669 | 13.27947 | 34963 ft | 387 kts | 145° |
| 2026-05-04 02:23 | 51.69588 | 13.33571 | 34960 ft | 388 kts | 145° |
| 2026-05-04 02:24 | 51.65484 | 13.39214 | 34957 ft | 388 kts | 145° |
| 2026-05-04 02:24 | 51.61356 | 13.44876 | 34955 ft | 388 kts | 145° |
| 2026-05-04 02:25 | 51.57247 | 13.50496 | 34955 ft | 388 kts | 145° |
| 2026-05-04 02:25 | 51.53123 | 13.56125 | 34964 ft | 389 kts | 145° |
| 2026-05-04 02:26 | 51.49020 | 13.61711 | 34963 ft | 389 kts | 145° |
| 2026-05-04 02:26 | 51.44877 | 13.67337 | 34962 ft | 389 kts | 145° |
| 2026-05-04 02:27 | 51.40772 | 13.72899 | 34971 ft | 389 kts | 145° |
| 2026-05-04 02:27 | 51.36632 | 13.78493 | 34977 ft | 389 kts | 144° |
| 2026-05-04 02:28 | 51.32497 | 13.84068 | 34983 ft | 389 kts | 144° |
| 2026-05-04 02:28 | 51.28362 | 13.89628 | 34984 ft | 389 kts | 144° |
| 2026-05-04 02:29 | 51.24223 | 13.95181 | 34983 ft | 389 kts | 144° |
| 2026-05-04 02:29 | 51.20082 | 14.00722 | 34989 ft | 389 kts | 144° |
| 2026-05-04 02:30 | 51.15930 | 14.06264 | 34984 ft | 389 kts | 144° |
| 2026-05-04 02:30 | 51.11793 | 14.11778 | 34981 ft | 390 kts | 144° |
| 2026-05-04 02:31 | 51.07639 | 14.17300 | 34985 ft | 390 kts | 144° |
| 2026-05-04 02:31 | 51.03463 | 14.22839 | 34984 ft | 390 kts | 144° |
| 2026-05-04 02:32 | 50.99297 | 14.28350 | 34984 ft | 390 kts | 144° |
| 2026-05-04 02:32 | 50.95123 | 14.33860 | 34991 ft | 390 kts | 144° |
| 2026-05-04 02:33 | 50.90881 | 14.39202 | 34996 ft | 389 kts | 147° |
| 2026-05-04 02:33 | 50.86578 | 14.44372 | 34997 ft | 389 kts | 147° |
| 2026-05-04 02:34 | 50.82264 | 14.49541 | 35001 ft | 389 kts | 147° |
| 2026-05-04 02:34 | 50.77946 | 14.54703 | 34996 ft | 389 kts | 147° |
| 2026-05-04 02:35 | 50.73624 | 14.59859 | 35004 ft | 389 kts | 147° |
| 2026-05-04 02:35 | 50.69327 | 14.64973 | 35005 ft | 389 kts | 147° |
| 2026-05-04 02:36 | 50.64999 | 14.70109 | 35002 ft | 389 kts | 147° |
| 2026-05-04 02:36 | 50.60664 | 14.75244 | 35002 ft | 389 kts | 147° |
| 2026-05-04 02:37 | 50.56326 | 14.80368 | 34998 ft | 390 kts | 147° |
| 2026-05-04 02:37 | 50.51988 | 14.85482 | 35003 ft | 390 kts | 147° |
| 2026-05-04 02:38 | 50.47661 | 14.90572 | 34998 ft | 390 kts | 146° |
| 2026-05-04 02:38 | 50.43321 | 14.95662 | 34999 ft | 390 kts | 146° |
| 2026-05-04 02:39 | 50.38973 | 15.00752 | 35000 ft | 390 kts | 147° |
| 2026-05-04 02:39 | 50.34610 | 15.05847 | 34999 ft | 390 kts | 146° |
| 2026-05-04 02:40 | 50.30271 | 15.10901 | 35002 ft | 391 kts | 146° |
| 2026-05-04 02:40 | 50.25907 | 15.15975 | 35001 ft | 391 kts | 146° |
| 2026-05-04 02:41 | 50.21554 | 15.21021 | 35000 ft | 390 kts | 146° |
| 2026-05-04 02:41 | 50.17187 | 15.26074 | 34995 ft | 390 kts | 146° |
| 2026-05-04 02:42 | 50.12813 | 15.31121 | 34996 ft | 390 kts | 146° |
| 2026-05-04 02:42 | 50.08457 | 15.36138 | 34998 ft | 390 kts | 146° |
| 2026-05-04 02:43 | 50.04089 | 15.41156 | 35004 ft | 390 kts | 146° |
| 2026-05-04 02:43 | 49.99709 | 15.46176 | 34995 ft | 391 kts | 146° |
| 2026-05-04 02:44 | 49.95343 | 15.51169 | 34994 ft | 391 kts | 146° |
| 2026-05-04 02:44 | 49.90960 | 15.56169 | 34994 ft | 391 kts | 146° |
| 2026-05-04 02:45 | 49.86569 | 15.61167 | 34996 ft | 391 kts | 146° |
| 2026-05-04 02:45 | 49.82193 | 15.66136 | 34996 ft | 392 kts | 146° |
| 2026-05-04 02:46 | 49.77782 | 15.71134 | 34999 ft | 393 kts | 147° |
| 2026-05-04 02:46 | 49.73367 | 15.76127 | 34999 ft | 393 kts | 147° |
| 2026-05-04 02:47 | 49.68940 | 15.81120 | 35007 ft | 394 kts | 147° |
| 2026-05-04 02:47 | 49.64514 | 15.86100 | 35015 ft | 394 kts | 146° |
| 2026-05-04 02:48 | 49.60098 | 15.91057 | 35016 ft | 394 kts | 146° |
| 2026-05-04 02:48 | 49.55654 | 15.96034 | 35026 ft | 394 kts | 146° |
| 2026-05-04 02:49 | 49.51211 | 16.00999 | 35028 ft | 395 kts | 146° |
| 2026-05-04 02:49 | 49.46765 | 16.05956 | 35037 ft | 395 kts | 146° |
| 2026-05-04 02:50 | 49.42310 | 16.10914 | 35038 ft | 395 kts | 146° |
| 2026-05-04 02:50 | 49.37866 | 16.15849 | 35043 ft | 394 kts | 146° |
| 2026-05-04 02:51 | 49.33415 | 16.20781 | 35044 ft | 394 kts | 146° |
| 2026-05-04 02:51 | 49.29057 | 16.25819 | 35048 ft | 395 kts | 143° |
| 2026-05-04 02:52 | 49.24755 | 16.31065 | 35047 ft | 395 kts | 142° |
| 2026-05-04 02:52 | 49.20430 | 16.36339 | 35049 ft | 396 kts | 142° |
| 2026-05-04 02:53 | 49.16133 | 16.41566 | 35048 ft | 396 kts | 142° |
| 2026-05-04 02:53 | 49.11821 | 16.46800 | 35048 ft | 396 kts | 142° |
| 2026-05-04 02:54 | 49.07503 | 16.52030 | 35048 ft | 396 kts | 142° |
| 2026-05-04 02:54 | 49.03177 | 16.57256 | 35049 ft | 396 kts | 142° |
| 2026-05-04 02:55 | 48.96698 | 16.65063 | 35047 ft | 397 kts | 142° |
| 2026-05-04 02:56 | 48.92376 | 16.70256 | 35045 ft | 397 kts | 142° |
| 2026-05-04 02:56 | 48.88033 | 16.75462 | 35044 ft | 398 kts | 142° |
| 2026-05-04 02:57 | 48.83668 | 16.80682 | 35043 ft | 399 kts | 142° |
| 2026-05-04 02:57 | 48.79310 | 16.85883 | 35044 ft | 399 kts | 142° |
| 2026-05-04 02:58 | 48.74961 | 16.91061 | 35045 ft | 400 kts | 142° |
| 2026-05-04 02:58 | 48.70585 | 16.96258 | 35046 ft | 400 kts | 142° |
| 2026-05-04 02:59 | 48.66204 | 17.01451 | 35050 ft | 400 kts | 142° |
| 2026-05-04 02:59 | 48.61811 | 17.06645 | 35050 ft | 400 kts | 142° |
| 2026-05-04 03:00 | 48.57432 | 17.11811 | 35056 ft | 400 kts | 142° |
| 2026-05-04 03:00 | 48.53045 | 17.16976 | 35060 ft | 400 kts | 142° |
| 2026-05-04 03:01 | 48.48653 | 17.22133 | 35066 ft | 400 kts | 142° |
| 2026-05-04 03:01 | 48.44283 | 17.27254 | 35078 ft | 400 kts | 142° |
| 2026-05-04 03:02 | 48.40614 | 17.31545 | 35094 ft | 400 kts | 142° |
| 2026-05-04 03:02 | 48.36214 | 17.36680 | 35094 ft | 400 kts | 142° |
| 2026-05-04 03:03 | 48.31813 | 17.41805 | 35097 ft | 400 kts | 142° |
| 2026-05-04 03:03 | 48.27399 | 17.46933 | 35100 ft | 400 kts | 142° |
| 2026-05-04 03:04 | 48.23011 | 17.52019 | 35097 ft | 400 kts | 142° |
| 2026-05-04 03:04 | 48.18601 | 17.57119 | 35097 ft | 401 kts | 142° |
| 2026-05-04 03:05 | 48.14175 | 17.62228 | 35097 ft | 401 kts | 142° |
| 2026-05-04 03:05 | 48.09784 | 17.67284 | 35096 ft | 401 kts | 142° |
| 2026-05-04 03:06 | 48.05359 | 17.72368 | 35093 ft | 401 kts | 142° |
| 2026-05-04 03:06 | 48.00926 | 17.77449 | 35095 ft | 401 kts | 142° |
| 2026-05-04 03:07 | 47.96495 | 17.82517 | 35100 ft | 402 kts | 142° |
| 2026-05-04 03:07 | 47.92047 | 17.87595 | 35104 ft | 402 kts | 141° |
| 2026-05-04 03:08 | 47.87626 | 17.92630 | 35104 ft | 402 kts | 141° |
| 2026-05-04 03:08 | 47.83172 | 17.97694 | 35120 ft | 402 kts | 141° |
| 2026-05-04 03:09 | 47.78709 | 18.02756 | 35120 ft | 403 kts | 141° |
| 2026-05-04 03:09 | 47.74235 | 18.07731 | 35125 ft | 404 kts | 143° |
| 2026-05-04 03:10 | 47.69698 | 18.12620 | 35122 ft | 404 kts | 143° |
| 2026-05-04 03:10 | 47.65153 | 18.17504 | 35124 ft | 404 kts | 143° |
| 2026-05-04 03:11 | 47.60594 | 18.22394 | 35126 ft | 404 kts | 143° |
| 2026-05-04 03:11 | 47.56036 | 18.27270 | 35123 ft | 404 kts | 143° |
| 2026-05-04 03:12 | 47.51471 | 18.32144 | 35129 ft | 405 kts | 143° |
| 2026-05-04 03:12 | 47.46917 | 18.36995 | 35133 ft | 405 kts | 143° |
| 2026-05-04 03:13 | 47.42332 | 18.41870 | 35139 ft | 406 kts | 142° |
| 2026-05-04 03:13 | 47.37739 | 18.46741 | 35141 ft | 406 kts | 143° |
| 2026-05-04 03:14 | 47.33148 | 18.51600 | 35138 ft | 406 kts | 143° |
| 2026-05-04 03:14 | 47.28573 | 18.56431 | 35145 ft | 406 kts | 142° |
| 2026-05-04 03:15 | 47.23968 | 18.61283 | 35142 ft | 407 kts | 142° |
| 2026-05-04 03:15 | 47.19363 | 18.66126 | 35148 ft | 407 kts | 142° |
| 2026-05-04 03:16 | 47.14753 | 18.70963 | 35146 ft | 408 kts | 143° |
| 2026-05-04 03:16 | 47.10125 | 18.75807 | 35147 ft | 408 kts | 142° |
| 2026-05-04 03:17 | 47.05530 | 18.80608 | 35148 ft | 408 kts | 142° |
| 2026-05-04 03:17 | 47.00893 | 18.85440 | 35149 ft | 408 kts | 142° |
| 2026-05-04 03:18 | 46.96279 | 18.90238 | 35152 ft | 408 kts | 142° |
| 2026-05-04 03:18 | 46.91648 | 18.95044 | 35149 ft | 409 kts | 142° |
| 2026-05-04 03:19 | 46.87000 | 18.99858 | 35151 ft | 409 kts | 142° |
| 2026-05-04 03:19 | 46.82353 | 19.04660 | 35155 ft | 409 kts | 142° |
| 2026-05-04 03:20 | 46.77706 | 19.09451 | 35151 ft | 410 kts | 142° |
| 2026-05-04 03:20 | 46.73049 | 19.14243 | 35152 ft | 410 kts | 142° |
| 2026-05-04 03:21 | 46.68382 | 19.19034 | 35153 ft | 410 kts | 142° |
| 2026-05-04 03:21 | 46.63730 | 19.23801 | 35153 ft | 410 kts | 142° |
| 2026-05-04 03:22 | 46.59067 | 19.28568 | 35153 ft | 411 kts | 142° |
| 2026-05-04 03:22 | 46.54383 | 19.33345 | 35156 ft | 411 kts | 142° |
| 2026-05-04 03:23 | 46.49698 | 19.38114 | 35154 ft | 411 kts | 142° |
| 2026-05-04 03:23 | 46.45012 | 19.42874 | 35153 ft | 411 kts | 142° |
| 2026-05-04 03:24 | 46.40327 | 19.47623 | 35153 ft | 412 kts | 142° |
| 2026-05-04 03:24 | 46.35628 | 19.52375 | 35154 ft | 412 kts | 142° |
| 2026-05-04 03:25 | 46.30922 | 19.57125 | 35156 ft | 413 kts | 142° |
| 2026-05-04 03:25 | 46.26237 | 19.61845 | 35158 ft | 413 kts | 142° |
| 2026-05-04 03:26 | 46.21515 | 19.66592 | 35155 ft | 414 kts | 142° |
| 2026-05-04 03:26 | 46.16819 | 19.71402 | 35157 ft | 414 kts | 141° |
| 2026-05-04 03:27 | 46.12165 | 19.76315 | 35156 ft | 414 kts | 141° |
| 2026-05-04 03:27 | 46.07541 | 19.81193 | 35157 ft | 415 kts | 141° |
| 2026-05-04 03:28 | 46.02870 | 19.86113 | 35157 ft | 415 kts | 141° |
| 2026-05-04 03:28 | 45.98203 | 19.91018 | 35155 ft | 415 kts | 141° |
| 2026-05-04 03:29 | 45.93540 | 19.95908 | 35154 ft | 416 kts | 141° |
| 2026-05-04 03:29 | 45.88860 | 20.00805 | 35156 ft | 416 kts | 141° |
| 2026-05-04 03:30 | 45.84194 | 20.05677 | 35152 ft | 417 kts | 141° |
| 2026-05-04 03:30 | 45.79502 | 20.10566 | 35156 ft | 417 kts | 141° |
| 2026-05-04 03:31 | 45.74827 | 20.15427 | 35155 ft | 417 kts | 141° |
| 2026-05-04 03:31 | 45.70118 | 20.20313 | 35150 ft | 417 kts | 141° |
| 2026-05-04 03:32 | 45.65422 | 20.25176 | 35148 ft | 417 kts | 141° |
| 2026-05-04 03:32 | 45.60710 | 20.30044 | 35150 ft | 417 kts | 141° |
| 2026-05-04 03:33 | 45.56026 | 20.34873 | 35150 ft | 417 kts | 141° |
| 2026-05-04 03:33 | 45.51330 | 20.39704 | 35149 ft | 417 kts | 141° |
| 2026-05-04 03:34 | 45.46604 | 20.44556 | 35147 ft | 417 kts | 141° |
| 2026-05-04 03:34 | 45.41892 | 20.49383 | 35152 ft | 417 kts | 141° |
| 2026-05-04 03:35 | 45.37196 | 20.54185 | 35159 ft | 417 kts | 141° |
| 2026-05-04 03:35 | 45.32470 | 20.59006 | 35155 ft | 417 kts | 141° |
| 2026-05-04 03:36 | 45.27777 | 20.63784 | 35158 ft | 417 kts | 141° |
| 2026-05-04 03:36 | 45.23052 | 20.68584 | 35155 ft | 417 kts | 141° |
| 2026-05-04 03:37 | 45.18327 | 20.73375 | 35160 ft | 417 kts | 141° |
| 2026-05-04 03:37 | 45.13596 | 20.78162 | 35164 ft | 417 kts | 141° |
| 2026-05-04 03:38 | 45.08885 | 20.82918 | 35167 ft | 417 kts | 141° |
| 2026-05-04 03:38 | 45.04160 | 20.87678 | 35173 ft | 417 kts | 141° |
| 2026-05-04 03:39 | 44.99425 | 20.92440 | 35171 ft | 417 kts | 141° |
| 2026-05-04 03:39 | 44.94698 | 20.97183 | 35172 ft | 418 kts | 141° |
| 2026-05-04 03:40 | 44.89980 | 21.01907 | 35173 ft | 418 kts | 141° |
| 2026-05-04 03:40 | 44.85232 | 21.06652 | 35177 ft | 418 kts | 141° |
| 2026-05-04 03:41 | 44.80479 | 21.11395 | 35177 ft | 418 kts | 141° |
| 2026-05-04 03:41 | 44.75745 | 21.16108 | 35175 ft | 419 kts | 141° |
| 2026-05-04 03:42 | 44.70902 | 21.20737 | 35177 ft | 420 kts | 142° |
| 2026-05-04 03:42 | 44.66082 | 21.25307 | 35175 ft | 420 kts | 142° |
| 2026-05-04 03:43 | 44.61232 | 21.29898 | 35178 ft | 420 kts | 142° |
| 2026-05-04 03:43 | 44.56409 | 21.34452 | 35181 ft | 420 kts | 142° |
| 2026-05-04 03:44 | 44.51528 | 21.39051 | 35180 ft | 420 kts | 142° |
| 2026-05-04 03:44 | 44.46678 | 21.43613 | 35185 ft | 421 kts | 142° |
| 2026-05-04 03:45 | 44.41815 | 21.48177 | 35185 ft | 421 kts | 142° |
| 2026-05-04 03:45 | 44.36975 | 21.52709 | 35188 ft | 422 kts | 142° |
| 2026-05-04 03:46 | 44.32100 | 21.57267 | 35195 ft | 422 kts | 142° |
| 2026-05-04 03:46 | 44.27204 | 21.61833 | 35188 ft | 422 kts | 142° |
| 2026-05-04 03:47 | 44.22320 | 21.66380 | 35195 ft | 423 kts | 142° |
| 2026-05-04 03:47 | 44.17427 | 21.70925 | 35195 ft | 422 kts | 142° |
| 2026-05-04 03:48 | 44.12544 | 21.75453 | 35181 ft | 422 kts | 142° |
| 2026-05-04 03:48 | 44.07641 | 21.79990 | 35189 ft | 423 kts | 142° |
| 2026-05-04 03:49 | 44.02770 | 21.84487 | 35182 ft | 423 kts | 142° |
| 2026-05-04 03:49 | 43.97881 | 21.88992 | 35190 ft | 423 kts | 142° |
| 2026-05-04 03:50 | 43.92963 | 21.93517 | 35188 ft | 422 kts | 142° |
| 2026-05-04 03:50 | 43.88070 | 21.98006 | 35190 ft | 422 kts | 142° |
| 2026-05-04 03:51 | 43.83198 | 22.02470 | 35195 ft | 422 kts | 142° |
| 2026-05-04 03:51 | 43.78308 | 22.06941 | 35194 ft | 422 kts | 142° |
| 2026-05-04 03:52 | 43.73392 | 22.11425 | 35200 ft | 422 kts | 142° |
| 2026-05-04 03:52 | 43.68512 | 22.15868 | 35195 ft | 422 kts | 142° |
| 2026-05-04 03:53 | 43.63624 | 22.20311 | 35205 ft | 422 kts | 142° |
| 2026-05-04 03:53 | 43.58709 | 22.24769 | 35206 ft | 422 kts | 142° |
| 2026-05-04 03:54 | 43.53795 | 22.29217 | 35210 ft | 422 kts | 142° |
| 2026-05-04 03:54 | 43.48880 | 22.33656 | 35215 ft | 422 kts | 142° |
| 2026-05-04 03:55 | 43.43977 | 22.38076 | 35224 ft | 422 kts | 142° |
| 2026-05-04 03:55 | 43.39080 | 22.42483 | 35221 ft | 421 kts | 142° |
| 2026-05-04 03:56 | 43.34159 | 22.46904 | 35228 ft | 421 kts | 142° |
| 2026-05-04 03:56 | 43.29270 | 22.51285 | 35228 ft | 421 kts | 142° |
| 2026-05-04 03:57 | 43.24360 | 22.55677 | 35223 ft | 421 kts | 142° |
| 2026-05-04 03:57 | 43.19450 | 22.60061 | 35223 ft | 421 kts | 142° |
| 2026-05-04 03:58 | 43.12111 | 22.66597 | 35226 ft | 421 kts | 142° |
| 2026-05-04 03:58 | 43.07192 | 22.70969 | 35217 ft | 421 kts | 142° |
| 2026-05-04 03:59 | 43.02277 | 22.75330 | 35216 ft | 421 kts | 142° |
| 2026-05-04 03:59 | 42.97373 | 22.79693 | 35217 ft | 421 kts | 141° |
| 2026-05-04 04:00 | 42.92562 | 22.84254 | 35221 ft | 421 kts | 141° |
| 2026-05-04 04:00 | 42.87780 | 22.88804 | 35221 ft | 421 kts | 141° |
| 2026-05-04 04:01 | 42.82984 | 22.93362 | 35220 ft | 421 kts | 141° |
| 2026-05-04 04:01 | 42.78958 | 22.97181 | 35204 ft | 421 kts | 141° |
| 2026-05-04 04:02 | 42.74171 | 23.01713 | 35204 ft | 422 kts | 141° |
| 2026-05-04 04:02 | 42.69350 | 23.06270 | 35201 ft | 421 kts | 141° |
| 2026-05-04 04:03 | 42.64534 | 23.10812 | 35198 ft | 420 kts | 141° |
| 2026-05-04 04:03 | 42.59740 | 23.15325 | 35192 ft | 419 kts | 141° |
| 2026-05-04 04:04 | 42.54956 | 23.19820 | 35196 ft | 418 kts | 142° |
| 2026-05-04 04:04 | 42.50188 | 23.24292 | 35195 ft | 418 kts | 142° |
| 2026-05-04 04:05 | 42.45408 | 23.28767 | 35193 ft | 417 kts | 142° |
| 2026-05-04 04:05 | 42.40628 | 23.33233 | 35192 ft | 417 kts | 142° |
| 2026-05-04 04:06 | 42.35857 | 23.37681 | 35198 ft | 417 kts | 142° |
| 2026-05-04 04:06 | 42.31087 | 23.42121 | 35194 ft | 417 kts | 142° |
| 2026-05-04 04:07 | 42.26334 | 23.46537 | 35195 ft | 417 kts | 142° |
| 2026-05-04 04:07 | 42.21542 | 23.50981 | 35201 ft | 416 kts | 142° |
| 2026-05-04 04:08 | 42.16754 | 23.55413 | 35204 ft | 416 kts | 142° |
| 2026-05-04 04:08 | 42.12009 | 23.59797 | 35194 ft | 416 kts | 142° |
| 2026-05-04 04:09 | 42.07236 | 23.64197 | 35188 ft | 416 kts | 142° |
| 2026-05-04 04:09 | 42.02452 | 23.68601 | 35195 ft | 416 kts | 142° |
| 2026-05-04 04:10 | 41.97694 | 23.72972 | 35193 ft | 416 kts | 142° |
| 2026-05-04 04:10 | 41.92904 | 23.77365 | 35193 ft | 416 kts | 142° |
| 2026-05-04 04:11 | 41.88129 | 23.81736 | 35191 ft | 415 kts | 142° |
| 2026-05-04 04:11 | 41.83398 | 23.86058 | 35194 ft | 415 kts | 143° |
| 2026-05-04 04:12 | 41.78606 | 23.90429 | 35193 ft | 415 kts | 143° |
| 2026-05-04 04:12 | 41.73807 | 23.94797 | 35195 ft | 415 kts | 143° |
| 2026-05-04 04:13 | 41.69063 | 23.99108 | 35196 ft | 414 kts | 143° |
| 2026-05-04 04:13 | 41.64295 | 24.03434 | 35194 ft | 414 kts | 143° |
| 2026-05-04 04:14 | 41.59520 | 24.07759 | 35196 ft | 414 kts | 143° |
| 2026-05-04 04:14 | 41.54754 | 24.12065 | 35196 ft | 414 kts | 143° |
| 2026-05-04 04:15 | 41.49978 | 24.16338 | 35193 ft | 413 kts | 143° |
| 2026-05-04 04:15 | 41.45208 | 24.20600 | 35187 ft | 413 kts | 143° |
| 2026-05-04 04:16 | 41.40439 | 24.24855 | 35190 ft | 413 kts | 143° |
| 2026-05-04 04:16 | 41.35673 | 24.29098 | 35185 ft | 412 kts | 144° |
| 2026-05-04 04:17 | 41.30902 | 24.33338 | 35183 ft | 412 kts | 144° |
| 2026-05-04 04:17 | 41.26142 | 24.37560 | 35179 ft | 411 kts | 144° |
| 2026-05-04 04:18 | 41.21387 | 24.41773 | 35172 ft | 411 kts | 144° |
| 2026-05-04 04:18 | 41.16387 | 24.45434 | 35164 ft | 412 kts | 153° |
| 2026-05-04 04:19 | 41.11213 | 24.48740 | 35146 ft | 413 kts | 152° |
| 2026-05-04 04:19 | 41.06049 | 24.52045 | 35138 ft | 413 kts | 152° |
| 2026-05-04 04:20 | 41.00889 | 24.55341 | 35134 ft | 413 kts | 152° |
| 2026-05-04 04:20 | 40.95703 | 24.58650 | 35136 ft | 412 kts | 152° |
| 2026-05-04 04:21 | 40.90551 | 24.61931 | 35126 ft | 412 kts | 153° |
| 2026-05-04 04:21 | 40.85359 | 24.65232 | 35125 ft | 412 kts | 153° |
| 2026-05-04 04:22 | 40.80189 | 24.68512 | 35135 ft | 412 kts | 153° |
| 2026-05-04 04:22 | 40.75054 | 24.71773 | 35135 ft | 412 kts | 153° |
| 2026-05-04 04:23 | 40.69878 | 24.75060 | 35134 ft | 412 kts | 153° |
| 2026-05-04 04:23 | 40.64718 | 24.78323 | 35137 ft | 412 kts | 153° |
| 2026-05-04 04:24 | 40.59540 | 24.81589 | 35135 ft | 413 kts | 153° |
| 2026-05-04 04:24 | 40.54355 | 24.84856 | 35133 ft | 413 kts | 153° |
| 2026-05-04 04:25 | 40.49197 | 24.88098 | 35135 ft | 413 kts | 153° |
| 2026-05-04 04:25 | 40.44007 | 24.91356 | 35136 ft | 414 kts | 153° |
| 2026-05-04 04:26 | 40.38801 | 24.94617 | 35139 ft | 414 kts | 153° |
| 2026-05-04 04:26 | 40.33600 | 24.97870 | 35133 ft | 415 kts | 153° |
| 2026-05-04 04:27 | 40.28382 | 25.01128 | 35136 ft | 416 kts | 153° |
| 2026-05-04 04:27 | 40.23146 | 25.04392 | 35132 ft | 416 kts | 153° |
| 2026-05-04 04:28 | 40.17920 | 25.07644 | 35129 ft | 417 kts | 153° |
| 2026-05-04 04:28 | 40.12679 | 25.10899 | 35120 ft | 416 kts | 153° |
| 2026-05-04 04:29 | 40.07473 | 25.14127 | 35122 ft | 417 kts | 153° |
| 2026-05-04 04:29 | 40.02214 | 25.17383 | 35105 ft | 417 kts | 154° |
| 2026-05-04 04:30 | 39.96974 | 25.20622 | 35107 ft | 416 kts | 154° |
| 2026-05-04 04:30 | 39.91784 | 25.23953 | 35094 ft | 415 kts | 144° |
| 2026-05-04 04:31 | 39.87478 | 25.28845 | 35094 ft | 413 kts | 138° |
| 2026-05-04 04:31 | 39.83118 | 25.33774 | 35112 ft | 414 kts | 137° |
| 2026-05-04 04:32 | 39.78799 | 25.38673 | 35114 ft | 415 kts | 137° |
| 2026-05-04 04:32 | 39.74439 | 25.43612 | 35109 ft | 415 kts | 138° |
| 2026-05-04 04:33 | 39.70082 | 25.48538 | 35120 ft | 415 kts | 138° |
| 2026-05-04 04:33 | 39.65764 | 25.53412 | 35113 ft | 414 kts | 138° |
| 2026-05-04 04:34 | 39.61412 | 25.58317 | 35121 ft | 414 kts | 138° |
| 2026-05-04 04:34 | 39.57050 | 25.63223 | 35117 ft | 414 kts | 138° |
| 2026-05-04 04:35 | 39.52712 | 25.68095 | 35111 ft | 414 kts | 139° |
| 2026-05-04 04:35 | 39.48367 | 25.72966 | 35107 ft | 414 kts | 139° |
| 2026-05-04 04:36 | 39.44010 | 25.77842 | 35106 ft | 414 kts | 139° |
| 2026-05-04 04:36 | 39.39663 | 25.82699 | 35107 ft | 414 kts | 139° |
| 2026-05-04 04:37 | 39.30943 | 25.92418 | 35102 ft | 414 kts | 139° |
| 2026-05-04 04:38 | 39.26536 | 25.97220 | 35104 ft | 414 kts | 140° |
| 2026-05-04 04:38 | 39.22117 | 26.01974 | 35100 ft | 413 kts | 141° |
| 2026-05-04 04:39 | 39.17716 | 26.06697 | 35104 ft | 413 kts | 141° |
| 2026-05-04 04:39 | 39.13288 | 26.11443 | 35090 ft | 413 kts | 141° |
| 2026-05-04 04:40 | 39.08897 | 26.16140 | 35093 ft | 412 kts | 141° |
| 2026-05-04 04:40 | 39.04485 | 26.20852 | 35089 ft | 412 kts | 141° |
| 2026-05-04 04:41 | 39.00059 | 26.25572 | 35082 ft | 411 kts | 141° |
| 2026-05-04 04:41 | 38.95650 | 26.30265 | 35078 ft | 411 kts | 141° |
| 2026-05-04 04:42 | 38.91276 | 26.34913 | 35080 ft | 410 kts | 142° |
| 2026-05-04 04:42 | 38.86882 | 26.39574 | 35074 ft | 410 kts | 142° |
| 2026-05-04 04:43 | 38.82503 | 26.44278 | 35070 ft | 409 kts | 141° |
| 2026-05-04 04:43 | 38.78219 | 26.49077 | 35066 ft | 409 kts | 141° |
| 2026-05-04 04:44 | 38.73931 | 26.53881 | 35060 ft | 408 kts | 141° |
| 2026-05-04 04:44 | 38.69676 | 26.58639 | 35050 ft | 407 kts | 141° |
| 2026-05-04 04:45 | 38.65403 | 26.63411 | 35046 ft | 407 kts | 141° |
| 2026-05-04 04:47 | 38.50535 | 26.79951 | 35030 ft | 404 kts | 141° |
| 2026-05-04 04:47 | 38.46297 | 26.84649 | 35019 ft | 404 kts | 141° |
| 2026-05-04 04:48 | 38.42057 | 26.89341 | 35010 ft | 403 kts | 141° |
| 2026-05-04 04:49 | 38.31441 | 27.00857 | 34978 ft | 398 kts | 152° |
| 2026-05-04 04:49 | 38.26419 | 27.03660 | 34990 ft | 396 kts | 159° |
| 2026-05-04 04:50 | 38.21365 | 27.06488 | 34990 ft | 395 kts | 159° |
| 2026-05-04 04:50 | 38.16347 | 27.09273 | 34995 ft | 395 kts | 159° |
| 2026-05-04 04:51 | 38.11309 | 27.12061 | 34997 ft | 394 kts | 159° |
| 2026-05-04 04:51 | 38.06272 | 27.14846 | 35019 ft | 394 kts | 159° |
| 2026-05-04 04:52 | 38.01247 | 27.17619 | 35021 ft | 393 kts | 159° |
| 2026-05-04 04:52 | 37.96267 | 27.20363 | 35019 ft | 393 kts | 159° |
| 2026-05-04 04:53 | 37.91252 | 27.23123 | 35018 ft | 392 kts | 160° |
| 2026-05-04 04:53 | 37.86242 | 27.25876 | 35018 ft | 391 kts | 160° |
| 2026-05-04 04:54 | 37.81278 | 27.28599 | 35020 ft | 391 kts | 160° |
| 2026-05-04 04:54 | 37.76291 | 27.31332 | 35019 ft | 390 kts | 160° |
| 2026-05-04 04:55 | 37.71314 | 27.34054 | 35007 ft | 389 kts | 160° |
| 2026-05-04 04:55 | 37.66339 | 27.36772 | 35005 ft | 388 kts | 160° |
| 2026-05-04 04:56 | 37.61397 | 27.39519 | 34997 ft | 388 kts | 159° |
| 2026-05-04 04:56 | 37.56507 | 27.42324 | 34988 ft | 387 kts | 159° |
| 2026-05-04 04:57 | 37.51607 | 27.45135 | 34993 ft | 386 kts | 159° |
| 2026-05-04 04:57 | 37.46681 | 27.47796 | 34983 ft | 385 kts | 161° |
| 2026-05-04 04:58 | 37.41749 | 27.50390 | 34973 ft | 383 kts | 161° |
| 2026-05-04 04:58 | 37.36855 | 27.52958 | 34977 ft | 383 kts | 161° |
| 2026-05-04 04:59 | 37.31927 | 27.55539 | 34965 ft | 382 kts | 162° |
| 2026-05-04 04:59 | 37.27857 | 27.57688 | 34963 ft | 382 kts | 161° |
| 2026-05-04 05:00 | 37.22185 | 27.60763 | 34967 ft | 381 kts | 161° |
| 2026-05-04 05:01 | 37.14910 | 27.64703 | 34951 ft | 380 kts | 161° |
| 2026-05-04 05:01 | 37.10845 | 27.66902 | 34967 ft | 379 kts | 161° |
| 2026-05-04 05:02 | 37.06005 | 27.69517 | 34971 ft | 379 kts | 162° |
| 2026-05-04 05:02 | 37.01186 | 27.72116 | 34973 ft | 379 kts | 162° |
| 2026-05-04 05:03 | 36.96343 | 27.74725 | 34966 ft | 379 kts | 162° |
| 2026-05-04 05:04 | 36.86666 | 27.79927 | 34959 ft | 379 kts | 162° |
| 2026-05-04 05:04 | 36.81830 | 27.82522 | 34952 ft | 379 kts | 162° |
| 2026-05-04 05:06 | 36.62412 | 27.92798 | 34921 ft | 379 kts | 163° |
| 2026-05-04 05:07 | 36.57541 | 27.95334 | 34907 ft | 379 kts | 163° |
| 2026-05-04 05:07 | 36.52685 | 27.97859 | 34912 ft | 380 kts | 163° |
| 2026-05-04 05:09 | 36.33431 | 28.08936 | 34709 ft | 394 kts | 139° |
| 2026-05-04 05:09 | 36.31595 | 28.11428 | 34878 ft | 393 kts | 130° |
| 2026-05-04 05:10 | 36.29750 | 28.13959 | 34982 ft | 396 kts | 134° |
| 2026-05-04 05:10 | 36.27855 | 28.16459 | 34894 ft | 404 kts | 134° |
| 2026-05-04 05:10 | 36.23986 | 28.21624 | 34918 ft | 415 kts | 134° |
| 2026-05-04 05:11 | 36.19997 | 28.26956 | 34908 ft | 428 kts | 134° |
| 2026-05-04 05:11 | 36.15898 | 28.32430 | 34908 ft | 438 kts | 134° |
| 2026-05-04 05:12 | 36.11772 | 28.37931 | 34912 ft | 439 kts | 134° |
| 2026-05-04 05:12 | 36.07623 | 28.43449 | 34908 ft | 439 kts | 134° |
| 2026-05-04 05:13 | 36.03456 | 28.48975 | 34908 ft | 439 kts | 134° |
| 2026-05-04 05:13 | 35.99293 | 28.54486 | 34908 ft | 439 kts | 134° |
| 2026-05-04 05:14 | 35.95118 | 28.60004 | 34908 ft | 439 kts | 135° |
| 2026-05-04 05:14 | 35.90962 | 28.65487 | 34902 ft | 439 kts | 135° |
| 2026-05-04 05:15 | 35.86682 | 28.70865 | 34910 ft | 439 kts | 138° |
| 2026-05-04 05:15 | 35.82283 | 28.76070 | 34895 ft | 439 kts | 138° |
| 2026-05-04 05:16 | 35.77874 | 28.81273 | 34896 ft | 439 kts | 139° |
| 2026-05-04 05:16 | 35.73460 | 28.86474 | 34893 ft | 439 kts | 139° |
| 2026-05-04 05:17 | 35.69048 | 28.91663 | 34888 ft | 439 kts | 139° |
| 2026-05-04 05:17 | 35.64619 | 28.96864 | 34888 ft | 439 kts | 139° |
| 2026-05-04 05:18 | 35.60192 | 29.02054 | 34886 ft | 439 kts | 139° |
| 2026-05-04 05:18 | 35.55785 | 29.07212 | 34882 ft | 440 kts | 139° |
| 2026-05-04 05:19 | 35.51350 | 29.12395 | 34880 ft | 439 kts | 139° |
| 2026-05-04 05:19 | 35.46924 | 29.17559 | 34880 ft | 439 kts | 139° |
| 2026-05-04 05:20 | 35.42515 | 29.22694 | 34881 ft | 439 kts | 140° |
| 2026-05-04 05:20 | 35.38071 | 29.27863 | 34877 ft | 439 kts | 140° |
| 2026-05-04 05:21 | 35.33633 | 29.33016 | 34875 ft | 440 kts | 140° |
| 2026-05-04 05:21 | 35.29218 | 29.38135 | 34876 ft | 440 kts | 140° |
| 2026-05-04 05:22 | 35.24770 | 29.43284 | 34875 ft | 440 kts | 140° |
| 2026-05-04 05:22 | 35.20297 | 29.48452 | 34877 ft | 441 kts | 140° |
| 2026-05-04 05:23 | 35.15827 | 29.53610 | 34873 ft | 441 kts | 140° |
| 2026-05-04 05:23 | 35.11365 | 29.58750 | 34875 ft | 441 kts | 141° |
| 2026-05-04 05:24 | 35.06912 | 29.63872 | 34880 ft | 442 kts | 141° |
| 2026-05-04 05:24 | 35.02441 | 29.69007 | 34880 ft | 442 kts | 141° |
| 2026-05-04 05:25 | 34.97951 | 29.74163 | 34874 ft | 443 kts | 141° |
| 2026-05-04 05:25 | 34.93518 | 29.79335 | 34876 ft | 443 kts | 141° |
| 2026-05-04 05:26 | 34.89063 | 29.84536 | 34884 ft | 444 kts | 141° |
| 2026-05-04 05:26 | 34.84597 | 29.89743 | 34882 ft | 445 kts | 141° |
| 2026-05-04 05:28 | 34.64822 | 30.06406 | 34885 ft | 432 kts | 161° |
| 2026-05-04 05:29 | 34.59426 | 30.09556 | 34889 ft | 432 kts | 161° |
| 2026-05-04 05:29 | 34.53995 | 30.12720 | 34890 ft | 432 kts | 162° |
| 2026-05-04 05:31 | 34.32307 | 30.25313 | 34899 ft | 433 kts | 162° |
| 2026-05-04 05:32 | 34.26879 | 30.28453 | 34901 ft | 433 kts | 162° |
| 2026-05-04 05:33 | 34.18749 | 30.33147 | 34910 ft | 433 kts | 163° |
| 2026-05-04 05:33 | 34.13295 | 30.36291 | 34911 ft | 433 kts | 163° |
| 2026-05-04 05:34 | 34.07857 | 30.39422 | 34916 ft | 432 kts | 163° |
| 2026-05-04 05:34 | 34.02461 | 30.42523 | 34918 ft | 432 kts | 163° |
| 2026-05-04 05:35 | 33.97032 | 30.45639 | 34918 ft | 431 kts | 163° |
| 2026-05-04 05:35 | 33.91637 | 30.48731 | 34926 ft | 431 kts | 163° |
| 2026-05-04 05:36 | 33.86199 | 30.51844 | 34930 ft | 430 kts | 164° |
| 2026-05-04 05:36 | 33.80831 | 30.54912 | 34931 ft | 430 kts | 164° |
| 2026-05-04 05:37 | 33.75433 | 30.57993 | 34935 ft | 429 kts | 164° |
| 2026-05-04 05:37 | 33.70028 | 30.61073 | 34942 ft | 428 kts | 164° |
| 2026-05-04 05:38 | 33.61975 | 30.65655 | 34946 ft | 428 kts | 165° |
| 2026-05-04 05:38 | 33.56622 | 30.68695 | 34951 ft | 427 kts | 165° |
| 2026-05-04 05:39 | 33.48546 | 30.73275 | 34958 ft | 427 kts | 165° |
| 2026-05-04 05:40 | 33.40514 | 30.77819 | 34964 ft | 427 kts | 165° |
| 2026-05-04 05:40 | 33.35144 | 30.80852 | 34969 ft | 426 kts | 166° |
| 2026-05-04 05:41 | 33.29802 | 30.83866 | 34969 ft | 426 kts | 166° |
| 2026-05-04 05:41 | 33.24435 | 30.86889 | 34972 ft | 426 kts | 166° |
| 2026-05-04 05:42 | 33.19083 | 30.89901 | 34979 ft | 426 kts | 166° |
| 2026-05-04 05:42 | 33.13726 | 30.92911 | 34979 ft | 425 kts | 166° |
| 2026-05-04 05:43 | 33.08312 | 30.95274 | 34977 ft | 392 kts | 188° |
| 2026-05-04 05:45 | 32.86560 | 30.97625 | 34992 ft | 393 kts | 187° |
| 2026-05-04 05:47 | 32.64864 | 31.00043 | 35008 ft | 390 kts | 188° |
| 2026-05-04 05:47 | 32.59497 | 31.00639 | 35007 ft | 389 kts | 188° |
| 2026-05-04 05:48 | 32.54099 | 31.01238 | 35013 ft | 389 kts | 188° |
| 2026-05-04 05:48 | 32.48710 | 31.01835 | 35018 ft | 389 kts | 188° |
| 2026-05-04 05:49 | 32.43320 | 31.02432 | 35024 ft | 389 kts | 188° |
| 2026-05-04 05:49 | 32.37955 | 31.03025 | 35023 ft | 389 kts | 188° |
| 2026-05-04 05:51 | 32.16395 | 31.05402 | 35035 ft | 390 kts | 188° |
| 2026-05-04 05:52 | 32.11013 | 31.05993 | 35041 ft | 390 kts | 188° |
| 2026-05-04 05:52 | 32.05606 | 31.06587 | 35040 ft | 390 kts | 188° |
| 2026-05-04 05:54 | 31.83961 | 31.08922 | 35048 ft | 391 kts | 188° |
| 2026-05-04 05:55 | 31.78547 | 31.09504 | 35048 ft | 391 kts | 188° |
| 2026-05-04 05:55 | 31.73157 | 31.10082 | 35051 ft | 391 kts | 188° |
| 2026-05-04 05:56 | 31.67754 | 31.10661 | 35048 ft | 391 kts | 188° |
| 2026-05-04 05:56 | 31.62326 | 31.11242 | 35056 ft | 390 kts | 188° |
| 2026-05-04 05:57 | 31.56942 | 31.11817 | 35062 ft | 390 kts | 188° |
| 2026-05-04 05:57 | 31.51592 | 31.12962 | 34526 ft | 396 kts | 178° |
| 2026-05-04 05:58 | 31.48954 | 31.14000 | 33567 ft | 413 kts | 173° |
| 2026-05-04 05:58 | 31.46214 | 31.15340 | 32578 ft | 428 kts | 168° |
| 2026-05-04 05:58 | 31.43571 | 31.16874 | 32180 ft | 425 kts | 164° |
| 2026-05-04 05:58 | 31.41029 | 31.18585 | 32172 ft | 411 kts | 161° |
| 2026-05-04 05:59 | 31.38677 | 31.20369 | 31994 ft | 403 kts | 159° |
| 2026-05-04 05:59 | 31.36398 | 31.22245 | 31365 ft | 407 kts | 157° |
| 2026-05-04 05:59 | 31.34076 | 31.24261 | 30505 ft | 417 kts | 155° |
| 2026-05-04 05:59 | 31.31793 | 31.26330 | 29839 ft | 420 kts | 153° |
| 2026-05-04 06:00 | 31.29532 | 31.28469 | 29557 ft | 410 kts | 152° |
| 2026-05-04 06:00 | 31.27409 | 31.30573 | 29392 ft | 398 kts | 151° |
| 2026-05-04 06:00 | 31.25333 | 31.32701 | 28930 ft | 394 kts | 150° |
| 2026-05-04 06:00 | 31.23291 | 31.34836 | 28148 ft | 400 kts | 150° |
| 2026-05-04 06:01 | 31.21217 | 31.37021 | 27408 ft | 404 kts | 149° |
| 2026-05-04 06:01 | 31.19131 | 31.39247 | 26974 ft | 400 kts | 149° |
| 2026-05-04 06:03 | 31.05623 | 31.54254 | 24227 ft | 369 kts | 147° |
| 2026-05-04 06:03 | 31.04396 | 31.55636 | 23956 ft | 367 kts | 147° |
| 2026-05-04 06:05 | 30.91700 | 31.69814 | 20634 ft | 355 kts | 147° |
| 2026-05-04 06:05 | 30.88175 | 31.73755 | 19915 ft | 346 kts | 147° |
| 2026-05-04 06:05 | 30.86465 | 31.75666 | 19540 ft | 342 kts | 147° |
| 2026-05-04 06:06 | 30.84734 | 31.77589 | 19073 ft | 343 kts | 147° |
| 2026-05-04 06:06 | 30.83011 | 31.79501 | 18626 ft | 343 kts | 147° |
| 2026-05-04 06:06 | 30.81293 | 31.81403 | 18241 ft | 340 kts | 147° |
| 2026-05-04 06:06 | 30.79582 | 31.83280 | 17879 ft | 335 kts | 148° |
| 2026-05-04 06:07 | 30.77906 | 31.85097 | 17491 ft | 331 kts | 148° |
| 2026-05-04 06:07 | 30.76198 | 31.86917 | 17026 ft | 330 kts | 148° |
| 2026-05-04 06:07 | 30.74508 | 31.88693 | 16578 ft | 329 kts | 148° |
| 2026-05-04 06:07 | 30.72817 | 31.90447 | 16187 ft | 325 kts | 149° |
| 2026-05-04 06:08 | 30.71113 | 31.92175 | 15846 ft | 321 kts | 149° |
| 2026-05-04 06:08 | 30.69427 | 31.93844 | 15456 ft | 318 kts | 150° |
| 2026-05-04 06:08 | 30.67735 | 31.95474 | 15043 ft | 317 kts | 151° |
| 2026-05-04 06:08 | 30.66009 | 31.97091 | 14648 ft | 315 kts | 151° |
| 2026-05-04 06:09 | 30.64310 | 31.98651 | 14299 ft | 312 kts | 152° |
| 2026-05-04 06:09 | 30.62600 | 32.00191 | 13958 ft | 308 kts | 152° |
| 2026-05-04 06:11 | 30.50670 | 32.09696 | 11318 ft | 287 kts | 158° |
| 2026-05-04 06:11 | 30.48931 | 32.10839 | 10975 ft | 284 kts | 159° |
| 2026-05-04 06:13 | 30.37480 | 32.07733 | 7990 ft | 244 kts | 221° |
| 2026-05-04 06:14 | 30.29971 | 32.00712 | 6114 ft | 215 kts | 248° |
| 2026-05-04 06:14 | 30.29494 | 31.99096 | 5704 ft | 212 kts | 262° |
| 2026-05-04 06:15 | 30.29257 | 31.97407 | 5356 ft | 210 kts | 265° |
| 2026-05-04 06:15 | 30.29056 | 31.95718 | 5336 ft | 221 kts | 261° |
| 2026-05-04 06:15 | 30.28737 | 31.93892 | 5146 ft | 239 kts | 259° |
| 2026-05-04 06:15 | 30.28325 | 31.91954 | 4881 ft | 263 kts | 257° |
| 2026-05-04 06:16 | 30.27887 | 31.89902 | 4731 ft | 264 kts | 257° |
| 2026-05-04 06:16 | 30.27432 | 31.87833 | 4506 ft | 260 kts | 260° |
| 2026-05-04 06:16 | 30.27115 | 31.85809 | 4220 ft | 254 kts | 263° |
| 2026-05-04 06:16 | 30.26886 | 31.83780 | 3896 ft | 252 kts | 264° |
| 2026-05-04 06:17 | 30.26621 | 31.81787 | 3438 ft | 256 kts | 260° |
| 2026-05-04 06:17 | 30.26244 | 31.79780 | 3148 ft | 251 kts | 259° |
| 2026-05-04 06:17 | 30.25883 | 31.77840 | 2923 ft | 245 kts | 259° |
| 2026-05-04 06:17 | 30.25531 | 31.75945 | 2714 ft | 241 kts | 259° |
| 2026-05-04 06:18 | 30.25180 | 31.74059 | 2473 ft | 243 kts | 259° |
| 2026-05-04 06:18 | 30.24825 | 31.72125 | 2181 ft | 242 kts | 258° |
| 2026-05-04 06:18 | 30.24483 | 31.70279 | 2162 ft | 227 kts | 258° |
| 2026-05-04 06:20 | 30.22605 | 31.60168 | 2104 ft | 170 kts | 259° |
| 2026-05-04 06:20 | 30.22332 | 31.58816 | 2091 ft | 172 kts | 252° |
| 2026-05-04 06:21 | 30.19398 | 31.54706 | 1148 ft | 142 kts | 234° |
| 2026-05-04 06:21 | 30.18767 | 31.53842 | 1175 ft | 141 kts | 234° |
| 2026-05-04 06:22 | 30.18098 | 31.53021 | 1224 ft | 143 kts | 228° |
| 2026-05-04 06:22 | 30.17399 | 31.52190 | 1189 ft | 145 kts | 233° |
| 2026-05-04 06:25 | 30.10717 | 31.42936 | 377 ft | 34 kts | 229° |
| 2026-05-04 06:25 | 30.10560 | 31.42727 | 377 ft | 35 kts | 227° |
| 2026-05-04 06:26 | 30.10397 | 31.42511 | 377 ft | 36 kts | 230° |
| 2026-05-04 06:26 | 30.10236 | 31.42296 | 377 ft | 35 kts | 228° |
| 2026-05-04 06:26 | 30.10081 | 31.42088 | 377 ft | 34 kts | 230° |
| 2026-05-04 06:26 | 30.09922 | 31.41880 | 377 ft | 35 kts | 229° |
| 2026-05-04 06:27 | 30.09819 | 31.41033 | 377 ft | 23 kts | 259° |
| 2026-05-04 06:28 | 30.09790 | 31.40859 | 377 ft | 21 kts | 259° |
| 2026-05-04 06:28 | 30.09824 | 31.40722 | 377 ft | 18 kts | 320° |
| 2026-05-04 06:28 | 30.09913 | 31.40634 | 377 ft | 16 kts | 318° |
| 2026-05-04 06:28 | 30.09989 | 31.40556 | 377 ft | 14 kts | 322° |
| 2026-05-04 06:29 | 30.10063 | 31.40486 | 377 ft | 15 kts | 320° |
| 2026-05-04 06:29 | 30.10156 | 31.40398 | 377 ft | 19 kts | 321° |
| 2026-05-04 06:29 | 30.10269 | 31.40289 | 377 ft | 23 kts | 317° |
| 2026-05-04 06:29 | 30.10398 | 31.40154 | 377 ft | 26 kts | 318° |
| 2026-05-04 06:30 | 30.10400 | 31.40003 | 377 ft | 21 kts | 229° |
| 2026-05-04 06:30 | 30.10298 | 31.39867 | 377 ft | 24 kts | 229° |
| 2026-05-04 06:30 | 30.10182 | 31.39713 | 377 ft | 25 kts | 229° |
| 2026-05-04 06:30 | 30.10167 | 31.39571 | 377 ft | 20 kts | 352° |
| 2026-05-04 06:31 | 30.10258 | 31.39662 | 377 ft | 17 kts | 49° |
| 2026-05-04 06:31 | 30.10330 | 31.39756 | 377 ft | 15 kts | 47° |
| 2026-05-04 06:31 | 30.10413 | 31.39788 | 377 ft | 12 kts | 352° |
| 2026-05-04 06:31 | 30.10489 | 31.39765 | 377 ft | 10 kts | 345° |
| 2026-05-04 06:32 | 30.10542 | 31.39731 | 377 ft | 8 kts | 302° |
| 2026-05-04 06:33 | 30.10231 | 31.39445 | 377 ft | 4 kts | 163° |
| 2026-05-04 06:34 | 30.10228 | 31.39446 | 377 ft | 0 kts | 163° |